WZZ627 SBRJ-DGAA
Flight info
| Callsign | WZZ627 |
|---|---|
| Flight time | 6h 58m |
| Altitude | 36000 |
| Route | SBRJ/02R PUMSO4A TISVA DCT LIVOD DCT UBKAL UZ47 GELAM DCT 16S030W 09S020W DCT ANPIR DCT 01S010W DCT IPEKA DCT DIRKO DIRKO1B DGAA/21 |
| Aircraft | A21N/M-SDE2E3FGHIRWXY/LB1 |
Departure
| Time | 2026-04-22 08:05 |
|---|---|
| Airport | Santos Dumont Airport (SBRJ) |
Arrival
| Time | 2026-04-22 15:03 |
|---|---|
| Airport | Kotoka International Airport (DGAA) |
| Time | Latitude | Longitude | Altitude | Speed | Heading |
|---|---|---|---|---|---|
| 2026-04-22 07:06 | -22.90638 | -43.16622 | 14 ft | 0 kts | 266° |
| 2026-04-22 07:55 | -22.90637 | -43.16616 | 27 ft | 4 kts | 265° |
| 2026-04-22 07:55 | -22.90634 | -43.16587 | 27 ft | 4 kts | 255° |
| 2026-04-22 07:55 | -22.90623 | -43.16561 | 27 ft | 4 kts | 226° |
| 2026-04-22 07:55 | -22.90607 | -43.16552 | 28 ft | 1 kts | 176° |
| 2026-04-22 07:56 | -22.90606 | -43.16552 | 28 ft | 4 kts | 176° |
| 2026-04-22 07:59 | -22.90611 | -43.16552 | 28 ft | 3 kts | 176° |
| 2026-04-22 07:59 | -22.90646 | -43.16549 | 29 ft | 7 kts | 176° |
| 2026-04-22 08:00 | -22.90712 | -43.16545 | 27 ft | 11 kts | 176° |
| 2026-04-22 08:00 | -22.90781 | -43.16541 | 27 ft | 8 kts | 176° |
| 2026-04-22 08:00 | -22.90812 | -43.16495 | 28 ft | 9 kts | 109° |
| 2026-04-22 08:00 | -22.90866 | -43.16468 | 28 ft | 10 kts | 176° |
| 2026-04-22 08:01 | -22.90941 | -43.16463 | 27 ft | 12 kts | 176° |
| 2026-04-22 08:01 | -22.91032 | -43.16457 | 27 ft | 13 kts | 176° |
| 2026-04-22 08:01 | -22.91126 | -43.16451 | 27 ft | 14 kts | 176° |
| 2026-04-22 08:01 | -22.91222 | -43.16445 | 27 ft | 14 kts | 177° |
| 2026-04-22 08:02 | -22.91320 | -43.16439 | 27 ft | 14 kts | 176° |
| 2026-04-22 08:02 | -22.91420 | -43.16432 | 27 ft | 12 kts | 177° |
| 2026-04-22 08:02 | -22.91488 | -43.16414 | 27 ft | 10 kts | 146° |
| 2026-04-22 08:02 | -22.91539 | -43.16363 | 28 ft | 11 kts | 137° |
| 2026-04-22 08:03 | -22.91594 | -43.16306 | 25 ft | 11 kts | 133° |
| 2026-04-22 08:03 | -22.91583 | -43.16251 | 26 ft | 5 kts | 340° |
| 2026-04-22 08:03 | -22.91557 | -43.16253 | 27 ft | 0 kts | 0° |
| 2026-04-22 08:04 | -22.91434 | -43.16254 | 26 ft | 53 kts | 358° |
| 2026-04-22 08:04 | -22.90795 | -43.16302 | 30 ft | 129 kts | 356° |
| 2026-04-22 08:04 | -22.89772 | -43.16361 | 457 ft | 156 kts | 357° |
| 2026-04-22 08:05 | -22.88638 | -43.16283 | 1171 ft | 172 kts | 20° |
| 2026-04-22 08:05 | -22.87758 | -43.15403 | 1680 ft | 181 kts | 65° |
| 2026-04-22 08:05 | -22.87664 | -43.14030 | 2011 ft | 190 kts | 98° |
| 2026-04-22 08:05 | -22.87856 | -43.12567 | 2328 ft | 204 kts | 96° |
| 2026-04-22 08:06 | -22.88010 | -43.10988 | 2700 ft | 216 kts | 95° |
| 2026-04-22 08:06 | -22.88154 | -43.09330 | 3111 ft | 228 kts | 95° |
| 2026-04-22 08:06 | -22.88300 | -43.07585 | 3597 ft | 234 kts | 95° |
| 2026-04-22 08:06 | -22.88444 | -43.05811 | 4158 ft | 238 kts | 95° |
| 2026-04-22 08:07 | -22.88528 | -43.04006 | 4733 ft | 241 kts | 88° |
| 2026-04-22 08:07 | -22.88415 | -43.02173 | 5293 ft | 244 kts | 85° |
| 2026-04-22 08:07 | -22.88273 | -43.00318 | 5678 ft | 259 kts | 85° |
| 2026-04-22 08:07 | -22.88121 | -42.98309 | 6044 ft | 273 kts | 85° |
| 2026-04-22 08:08 | -22.87967 | -42.96235 | 6606 ft | 279 kts | 85° |
| 2026-04-22 08:08 | -22.87814 | -42.94124 | 7207 ft | 282 kts | 85° |
| 2026-04-22 08:08 | -22.87659 | -42.92006 | 7838 ft | 284 kts | 86° |
| 2026-04-22 08:08 | -22.87503 | -42.89863 | 8445 ft | 286 kts | 86° |
| 2026-04-22 08:09 | -22.87348 | -42.87702 | 9032 ft | 289 kts | 86° |
| 2026-04-22 08:09 | -22.87191 | -42.85519 | 9613 ft | 291 kts | 86° |
| 2026-04-22 08:09 | -22.86989 | -42.83328 | 10128 ft | 295 kts | 82° |
| 2026-04-22 08:09 | -22.86289 | -42.81191 | 10386 ft | 309 kts | 62° |
| 2026-04-22 08:10 | -22.85194 | -42.79121 | 10613 ft | 323 kts | 60° |
| 2026-04-22 08:10 | -22.84041 | -42.76969 | 10822 ft | 337 kts | 61° |
| 2026-04-22 08:10 | -22.82883 | -42.74729 | 11237 ft | 342 kts | 62° |
| 2026-04-22 08:10 | -22.81740 | -42.72463 | 11741 ft | 344 kts | 62° |
| 2026-04-22 08:11 | -22.80604 | -42.70173 | 12257 ft | 346 kts | 62° |
| 2026-04-22 08:11 | -22.79465 | -42.67859 | 12772 ft | 349 kts | 63° |
| 2026-04-22 08:11 | -22.78320 | -42.65528 | 13290 ft | 351 kts | 63° |
| 2026-04-22 08:11 | -22.77168 | -42.63186 | 13772 ft | 354 kts | 63° |
| 2026-04-22 08:12 | -22.76012 | -42.60831 | 14227 ft | 356 kts | 63° |
| 2026-04-22 08:12 | -22.74841 | -42.58447 | 14667 ft | 359 kts | 62° |
| 2026-04-22 08:12 | -22.73661 | -42.56048 | 15097 ft | 362 kts | 62° |
| 2026-04-22 08:12 | -22.72473 | -42.53633 | 15535 ft | 365 kts | 62° |
| 2026-04-22 08:13 | -22.71275 | -42.51200 | 15971 ft | 367 kts | 62° |
| 2026-04-22 08:13 | -22.70066 | -42.48747 | 16405 ft | 370 kts | 62° |
| 2026-04-22 08:13 | -22.68869 | -42.46313 | 16824 ft | 373 kts | 62° |
| 2026-04-22 08:13 | -22.67635 | -42.43803 | 17089 ft | 382 kts | 62° |
| 2026-04-22 08:14 | -22.66369 | -42.41233 | 17275 ft | 392 kts | 62° |
| 2026-04-22 08:14 | -22.65073 | -42.38604 | 17434 ft | 402 kts | 62° |
| 2026-04-22 08:14 | -22.63735 | -42.35895 | 17587 ft | 412 kts | 62° |
| 2026-04-22 08:14 | -22.62372 | -42.33131 | 17734 ft | 422 kts | 62° |
| 2026-04-22 08:15 | -22.60992 | -42.30298 | 17966 ft | 428 kts | 62° |
| 2026-04-22 08:15 | -22.59595 | -42.27438 | 18318 ft | 431 kts | 62° |
| 2026-04-22 08:15 | -22.58157 | -42.24570 | 18657 ft | 434 kts | 60° |
| 2026-04-22 08:15 | -22.56640 | -42.21738 | 18984 ft | 436 kts | 59° |
| 2026-04-22 08:16 | -22.55106 | -42.18902 | 19279 ft | 439 kts | 59° |
| 2026-04-22 08:16 | -22.53565 | -42.16034 | 19591 ft | 441 kts | 59° |
| 2026-04-22 08:16 | -22.52025 | -42.13162 | 19899 ft | 444 kts | 59° |
| 2026-04-22 08:16 | -22.50469 | -42.10260 | 20203 ft | 446 kts | 59° |
| 2026-04-22 08:17 | -22.48908 | -42.07346 | 20496 ft | 449 kts | 59° |
| 2026-04-22 08:17 | -22.47339 | -42.04419 | 20799 ft | 451 kts | 59° |
| 2026-04-22 08:17 | -22.45760 | -42.01476 | 21092 ft | 454 kts | 59° |
| 2026-04-22 08:17 | -22.44189 | -41.98548 | 21380 ft | 456 kts | 59° |
| 2026-04-22 08:18 | -22.42594 | -41.95572 | 21670 ft | 459 kts | 59° |
| 2026-04-22 08:18 | -22.40983 | -41.92576 | 21971 ft | 461 kts | 59° |
| 2026-04-22 08:18 | -22.39366 | -41.89571 | 22254 ft | 464 kts | 59° |
| 2026-04-22 08:18 | -22.37739 | -41.86540 | 22525 ft | 467 kts | 59° |
| 2026-04-22 08:19 | -22.36110 | -41.83499 | 22831 ft | 469 kts | 59° |
| 2026-04-22 08:19 | -22.34461 | -41.80443 | 23126 ft | 472 kts | 59° |
| 2026-04-22 08:19 | -22.32933 | -41.77613 | 23390 ft | 474 kts | 59° |
| 2026-04-22 08:19 | -22.31268 | -41.74521 | 23651 ft | 477 kts | 59° |
| 2026-04-22 08:20 | -22.29593 | -41.71414 | 23877 ft | 479 kts | 59° |
| 2026-04-22 08:20 | -22.27929 | -41.68291 | 24118 ft | 481 kts | 59° |
| 2026-04-22 08:20 | -22.26251 | -41.65146 | 24344 ft | 483 kts | 59° |
| 2026-04-22 08:20 | -22.24559 | -41.61997 | 24574 ft | 486 kts | 59° |
| 2026-04-22 08:21 | -22.22858 | -41.58840 | 24808 ft | 487 kts | 59° |
| 2026-04-22 08:21 | -22.21134 | -41.55673 | 25047 ft | 489 kts | 59° |
| 2026-04-22 08:21 | -22.19431 | -41.52547 | 25280 ft | 491 kts | 59° |
| 2026-04-22 08:21 | -22.17710 | -41.49356 | 25508 ft | 493 kts | 59° |
| 2026-04-22 08:22 | -22.15982 | -41.46153 | 25747 ft | 495 kts | 59° |
| 2026-04-22 08:22 | -22.14236 | -41.42941 | 25978 ft | 496 kts | 59° |
| 2026-04-22 08:22 | -22.12487 | -41.39720 | 26204 ft | 498 kts | 59° |
| 2026-04-22 08:22 | -22.10736 | -41.36494 | 26417 ft | 500 kts | 59° |
| 2026-04-22 08:23 | -22.08976 | -41.33244 | 26621 ft | 502 kts | 59° |
| 2026-04-22 08:23 | -22.07206 | -41.29991 | 26839 ft | 504 kts | 58° |
| 2026-04-22 08:23 | -22.05415 | -41.26737 | 27034 ft | 505 kts | 58° |
| 2026-04-22 08:23 | -22.03627 | -41.23474 | 27229 ft | 507 kts | 59° |
| 2026-04-22 08:24 | -22.01832 | -41.20194 | 27417 ft | 509 kts | 59° |
| 2026-04-22 08:24 | -22.00036 | -41.16906 | 27592 ft | 510 kts | 59° |
| 2026-04-22 08:24 | -21.98233 | -41.13599 | 27768 ft | 512 kts | 59° |
| 2026-04-22 08:24 | -21.96425 | -41.10283 | 27940 ft | 513 kts | 59° |
| 2026-04-22 08:25 | -21.94613 | -41.06955 | 28108 ft | 515 kts | 59° |
| 2026-04-22 08:25 | -21.92799 | -41.03632 | 28300 ft | 515 kts | 58° |
| 2026-04-22 08:25 | -21.90982 | -41.00307 | 28514 ft | 515 kts | 58° |
| 2026-04-22 08:25 | -21.89159 | -40.96981 | 28744 ft | 515 kts | 58° |
| 2026-04-22 08:26 | -21.87339 | -40.93664 | 28951 ft | 515 kts | 58° |
| 2026-04-22 08:26 | -21.85444 | -40.90446 | 29133 ft | 514 kts | 55° |
| 2026-04-22 08:26 | -21.83441 | -40.87257 | 29331 ft | 514 kts | 54° |
| 2026-04-22 08:26 | -21.81431 | -40.84071 | 29524 ft | 514 kts | 54° |
| 2026-04-22 08:27 | -21.79425 | -40.80886 | 29722 ft | 514 kts | 54° |
| 2026-04-22 08:27 | -21.77417 | -40.77693 | 29903 ft | 514 kts | 54° |
| 2026-04-22 08:27 | -21.75408 | -40.74510 | 30083 ft | 514 kts | 54° |
| 2026-04-22 08:27 | -21.73399 | -40.71331 | 30240 ft | 514 kts | 54° |
| 2026-04-22 08:28 | -21.71386 | -40.68147 | 30399 ft | 514 kts | 54° |
| 2026-04-22 08:28 | -21.69376 | -40.64964 | 30555 ft | 514 kts | 54° |
| 2026-04-22 08:28 | -21.67366 | -40.61784 | 30705 ft | 514 kts | 55° |
| 2026-04-22 08:28 | -21.65358 | -40.58611 | 30856 ft | 514 kts | 55° |
| 2026-04-22 08:29 | -21.63341 | -40.55428 | 31002 ft | 514 kts | 55° |
| 2026-04-22 08:29 | -21.61328 | -40.52249 | 31141 ft | 514 kts | 55° |
| 2026-04-22 08:29 | -21.59343 | -40.49115 | 31273 ft | 514 kts | 55° |
| 2026-04-22 08:29 | -21.57336 | -40.45948 | 31414 ft | 514 kts | 55° |
| 2026-04-22 08:30 | -21.55319 | -40.42769 | 31537 ft | 514 kts | 55° |
| 2026-04-22 08:30 | -21.53305 | -40.39596 | 31648 ft | 514 kts | 56° |
| 2026-04-22 08:30 | -21.51310 | -40.36414 | 31779 ft | 514 kts | 56° |
| 2026-04-22 08:30 | -21.49314 | -40.33237 | 31904 ft | 514 kts | 56° |
| 2026-04-22 08:31 | -21.47301 | -40.30057 | 32035 ft | 514 kts | 56° |
| 2026-04-22 08:31 | -21.45971 | -40.27963 | 32116 ft | 514 kts | 56° |
| 2026-04-22 08:31 | -21.41937 | -40.21632 | 32344 ft | 513 kts | 56° |
| 2026-04-22 08:32 | -21.39912 | -40.18466 | 32453 ft | 513 kts | 55° |
| 2026-04-22 08:32 | -21.37877 | -40.15314 | 32555 ft | 513 kts | 56° |
| 2026-04-22 08:32 | -21.35847 | -40.12156 | 32668 ft | 513 kts | 56° |
| 2026-04-22 08:32 | -21.33828 | -40.09004 | 32773 ft | 513 kts | 56° |
| 2026-04-22 08:33 | -21.31808 | -40.05843 | 32871 ft | 513 kts | 56° |
| 2026-04-22 08:33 | -21.27771 | -39.99539 | 33067 ft | 513 kts | 56° |
| 2026-04-22 08:34 | -21.23730 | -39.93229 | 33253 ft | 513 kts | 56° |
| 2026-04-22 08:34 | -21.19690 | -39.86921 | 33419 ft | 513 kts | 56° |
| 2026-04-22 08:35 | -21.15654 | -39.80620 | 33585 ft | 513 kts | 56° |
| 2026-04-22 08:35 | -21.11613 | -39.74332 | 33750 ft | 512 kts | 56° |
| 2026-04-22 08:36 | -21.07600 | -39.68088 | 33908 ft | 512 kts | 56° |
| 2026-04-22 08:36 | -21.03562 | -39.61808 | 34035 ft | 512 kts | 56° |
| 2026-04-22 08:37 | -20.99536 | -39.55523 | 34185 ft | 511 kts | 56° |
| 2026-04-22 08:37 | -20.95485 | -39.49270 | 34293 ft | 511 kts | 56° |
| 2026-04-22 08:38 | -20.91434 | -39.43009 | 34376 ft | 511 kts | 56° |
| 2026-04-22 08:38 | -20.87418 | -39.36807 | 34477 ft | 510 kts | 56° |
| 2026-04-22 08:39 | -20.83373 | -39.30564 | 34573 ft | 510 kts | 56° |
| 2026-04-22 08:39 | -20.79339 | -39.24330 | 34657 ft | 510 kts | 56° |
| 2026-04-22 08:40 | -20.75297 | -39.18103 | 34718 ft | 509 kts | 56° |
| 2026-04-22 08:40 | -20.71265 | -39.11885 | 34789 ft | 509 kts | 56° |
| 2026-04-22 08:41 | -20.67220 | -39.05667 | 34851 ft | 509 kts | 56° |
| 2026-04-22 08:41 | -20.63185 | -38.99471 | 34920 ft | 508 kts | 56° |
| 2026-04-22 08:42 | -20.59263 | -38.93201 | 34964 ft | 507 kts | 62° |
| 2026-04-22 08:42 | -20.56424 | -38.86387 | 35004 ft | 505 kts | 69° |
| 2026-04-22 08:43 | -20.53728 | -38.79463 | 35047 ft | 505 kts | 69° |
| 2026-04-22 08:43 | -20.50983 | -38.72560 | 35087 ft | 505 kts | 68° |
| 2026-04-22 08:44 | -20.48231 | -38.65663 | 35127 ft | 505 kts | 69° |
| 2026-04-22 08:44 | -20.45490 | -38.58754 | 35171 ft | 505 kts | 69° |
| 2026-04-22 08:45 | -20.42761 | -38.51895 | 35110 ft | 496 kts | 68° |
| 2026-04-22 08:45 | -20.40076 | -38.45156 | 35047 ft | 494 kts | 68° |
| 2026-04-22 08:46 | -20.37411 | -38.38462 | 35077 ft | 493 kts | 68° |
| 2026-04-22 08:46 | -20.34712 | -38.31694 | 35085 ft | 493 kts | 68° |
| 2026-04-22 08:47 | -20.32049 | -38.25020 | 35085 ft | 492 kts | 68° |
| 2026-04-22 08:47 | -20.29357 | -38.18306 | 35086 ft | 491 kts | 68° |
| 2026-04-22 08:48 | -20.26665 | -38.11588 | 35089 ft | 493 kts | 68° |
| 2026-04-22 08:48 | -20.23977 | -38.04883 | 35084 ft | 493 kts | 68° |
| 2026-04-22 08:49 | -20.21286 | -37.98178 | 35086 ft | 492 kts | 68° |
| 2026-04-22 08:49 | -20.18585 | -37.91472 | 35084 ft | 491 kts | 68° |
| 2026-04-22 08:50 | -20.15908 | -37.84820 | 35084 ft | 492 kts | 68° |
| 2026-04-22 08:50 | -20.13214 | -37.78131 | 35085 ft | 493 kts | 68° |
| 2026-04-22 08:51 | -20.10522 | -37.71446 | 35085 ft | 492 kts | 68° |
| 2026-04-22 08:51 | -20.07817 | -37.64764 | 35079 ft | 491 kts | 68° |
| 2026-04-22 08:52 | -20.05108 | -37.58080 | 35080 ft | 491 kts | 68° |
| 2026-04-22 08:52 | -20.02418 | -37.51418 | 35084 ft | 492 kts | 68° |
| 2026-04-22 08:53 | -19.99711 | -37.44755 | 35083 ft | 491 kts | 67° |
| 2026-04-22 08:53 | -19.96999 | -37.38100 | 35087 ft | 490 kts | 68° |
| 2026-04-22 08:54 | -19.94296 | -37.31452 | 35082 ft | 489 kts | 67° |
| 2026-04-22 08:54 | -19.91584 | -37.24801 | 35080 ft | 489 kts | 67° |
| 2026-04-22 08:55 | -19.88899 | -37.18201 | 35077 ft | 489 kts | 67° |
| 2026-04-22 08:55 | -19.86191 | -37.11563 | 35079 ft | 489 kts | 67° |
| 2026-04-22 08:56 | -19.83475 | -37.04937 | 35081 ft | 490 kts | 67° |
| 2026-04-22 08:56 | -19.80766 | -36.98317 | 35081 ft | 489 kts | 67° |
| 2026-04-22 08:57 | -19.78055 | -36.91706 | 35080 ft | 488 kts | 67° |
| 2026-04-22 08:57 | -19.75345 | -36.85096 | 35080 ft | 487 kts | 67° |
| 2026-04-22 08:58 | -19.72634 | -36.78496 | 35085 ft | 488 kts | 67° |
| 2026-04-22 08:58 | -19.69917 | -36.71898 | 35081 ft | 488 kts | 67° |
| 2026-04-22 08:59 | -19.67220 | -36.65350 | 35080 ft | 488 kts | 67° |
| 2026-04-22 08:59 | -19.64500 | -36.58756 | 35081 ft | 488 kts | 67° |
| 2026-04-22 09:00 | -19.61782 | -36.52167 | 35075 ft | 487 kts | 67° |
| 2026-04-22 09:00 | -19.59061 | -36.45576 | 35080 ft | 486 kts | 67° |
| 2026-04-22 09:01 | -19.56341 | -36.38992 | 35079 ft | 487 kts | 67° |
| 2026-04-22 09:01 | -19.53613 | -36.32421 | 35086 ft | 487 kts | 67° |
| 2026-04-22 09:02 | -19.50883 | -36.25850 | 35084 ft | 488 kts | 67° |
| 2026-04-22 09:02 | -19.48158 | -36.19275 | 35086 ft | 488 kts | 67° |
| 2026-04-22 09:03 | -19.45440 | -36.12745 | 35082 ft | 487 kts | 67° |
| 2026-04-22 09:03 | -19.42712 | -36.06171 | 35076 ft | 486 kts | 67° |
| 2026-04-22 09:04 | -19.39882 | -35.99639 | 35080 ft | 487 kts | 62° |
| 2026-04-22 09:04 | -19.36511 | -35.93411 | 35082 ft | 487 kts | 60° |
| 2026-04-22 09:05 | -19.33128 | -35.87199 | 35079 ft | 487 kts | 60° |
| 2026-04-22 09:05 | -19.29761 | -35.80983 | 35079 ft | 488 kts | 60° |
| 2026-04-22 09:06 | -19.26389 | -35.74768 | 35076 ft | 487 kts | 60° |
| 2026-04-22 09:06 | -19.23016 | -35.68554 | 35080 ft | 487 kts | 60° |
| 2026-04-22 09:07 | -19.19642 | -35.62348 | 35076 ft | 486 kts | 60° |
| 2026-04-22 09:07 | -19.16268 | -35.56142 | 35074 ft | 485 kts | 60° |
| 2026-04-22 09:08 | -19.12924 | -35.49989 | 35072 ft | 485 kts | 60° |
| 2026-04-22 09:08 | -19.09544 | -35.43801 | 35075 ft | 485 kts | 60° |
| 2026-04-22 09:09 | -19.06158 | -35.37608 | 35071 ft | 485 kts | 60° |
| 2026-04-22 09:09 | -19.02775 | -35.31422 | 35079 ft | 485 kts | 60° |
| 2026-04-22 09:10 | -18.99404 | -35.25241 | 35077 ft | 485 kts | 61° |
| 2026-04-22 09:10 | -18.96043 | -35.19056 | 35072 ft | 486 kts | 60° |
| 2026-04-22 09:11 | -18.92674 | -35.12894 | 35069 ft | 485 kts | 60° |
| 2026-04-22 09:11 | -18.89303 | -35.06741 | 35069 ft | 484 kts | 60° |
| 2026-04-22 09:12 | -18.85947 | -35.00634 | 35068 ft | 484 kts | 60° |
| 2026-04-22 09:12 | -18.82543 | -34.94496 | 35071 ft | 483 kts | 60° |
| 2026-04-22 09:13 | -18.79162 | -34.88366 | 35071 ft | 483 kts | 60° |
| 2026-04-22 09:13 | -18.75781 | -34.82232 | 35068 ft | 482 kts | 60° |
| 2026-04-22 09:14 | -18.72400 | -34.76101 | 35073 ft | 483 kts | 60° |
| 2026-04-22 09:14 | -18.69015 | -34.69966 | 35071 ft | 483 kts | 60° |
| 2026-04-22 09:15 | -18.65635 | -34.63843 | 35069 ft | 484 kts | 60° |
| 2026-04-22 09:15 | -18.62265 | -34.57747 | 35074 ft | 485 kts | 60° |
| 2026-04-22 09:16 | -18.58874 | -34.51615 | 35069 ft | 485 kts | 60° |
| 2026-04-22 09:16 | -18.55475 | -34.45477 | 35068 ft | 485 kts | 60° |
| 2026-04-22 09:17 | -18.52082 | -34.39350 | 35064 ft | 485 kts | 61° |
| 2026-04-22 09:17 | -18.48701 | -34.33209 | 35064 ft | 485 kts | 60° |
| 2026-04-22 09:18 | -18.45289 | -34.27062 | 35066 ft | 485 kts | 60° |
| 2026-04-22 09:18 | -18.41870 | -34.20926 | 35069 ft | 485 kts | 60° |
| 2026-04-22 09:19 | -18.38456 | -34.14788 | 35068 ft | 486 kts | 60° |
| 2026-04-22 09:19 | -18.35611 | -34.09685 | 35068 ft | 487 kts | 60° |
| 2026-04-22 09:20 | -18.32172 | -34.03555 | 35069 ft | 487 kts | 60° |
| 2026-04-22 09:20 | -18.28745 | -33.97438 | 35066 ft | 486 kts | 60° |
| 2026-04-22 09:21 | -18.25345 | -33.91302 | 35063 ft | 484 kts | 61° |
| 2026-04-22 09:21 | -18.21963 | -33.85224 | 35062 ft | 483 kts | 60° |
| 2026-04-22 09:22 | -18.18548 | -33.79127 | 35063 ft | 482 kts | 60° |
| 2026-04-22 09:22 | -18.15132 | -33.73042 | 35061 ft | 481 kts | 60° |
| 2026-04-22 09:23 | -18.11726 | -33.66964 | 35059 ft | 481 kts | 60° |
| 2026-04-22 09:23 | -18.08314 | -33.60926 | 35066 ft | 480 kts | 60° |
| 2026-04-22 09:24 | -18.04929 | -33.54935 | 35059 ft | 480 kts | 60° |
| 2026-04-22 09:24 | -18.01541 | -33.48910 | 35058 ft | 479 kts | 60° |
| 2026-04-22 09:25 | -17.98148 | -33.42891 | 35056 ft | 478 kts | 60° |
| 2026-04-22 09:25 | -17.94765 | -33.36888 | 35058 ft | 477 kts | 60° |
| 2026-04-22 09:26 | -17.91379 | -33.30885 | 35056 ft | 476 kts | 60° |
| 2026-04-22 09:26 | -17.87994 | -33.24880 | 35060 ft | 477 kts | 60° |
| 2026-04-22 09:27 | -17.84609 | -33.18889 | 35055 ft | 477 kts | 60° |
| 2026-04-22 09:27 | -17.81224 | -33.12904 | 35056 ft | 477 kts | 59° |
| 2026-04-22 09:28 | -17.77840 | -33.06930 | 35056 ft | 477 kts | 59° |
| 2026-04-22 09:28 | -17.74478 | -33.00984 | 35056 ft | 477 kts | 59° |
| 2026-04-22 09:29 | -17.71085 | -32.95011 | 35049 ft | 476 kts | 59° |
| 2026-04-22 09:29 | -17.67688 | -32.89034 | 35050 ft | 475 kts | 59° |
| 2026-04-22 09:30 | -17.64291 | -32.83055 | 35054 ft | 476 kts | 59° |
| 2026-04-22 09:30 | -17.60904 | -32.77086 | 35053 ft | 478 kts | 59° |
| 2026-04-22 09:31 | -17.57503 | -32.71108 | 35055 ft | 478 kts | 59° |
| 2026-04-22 09:31 | -17.54126 | -32.65118 | 35050 ft | 478 kts | 58° |
| 2026-04-22 09:32 | -17.50747 | -32.59178 | 35044 ft | 478 kts | 58° |
| 2026-04-22 09:32 | -17.47311 | -32.53165 | 35171 ft | 478 kts | 58° |
| 2026-04-22 09:33 | -17.43928 | -32.47238 | 35329 ft | 477 kts | 58° |
| 2026-04-22 09:33 | -17.40509 | -32.41287 | 35447 ft | 477 kts | 57° |
| 2026-04-22 09:34 | -17.37074 | -32.35333 | 35569 ft | 477 kts | 57° |
| 2026-04-22 09:34 | -17.33665 | -32.29385 | 35688 ft | 477 kts | 57° |
| 2026-04-22 09:35 | -17.30254 | -32.23427 | 35799 ft | 476 kts | 57° |
| 2026-04-22 09:35 | -17.28547 | -32.20459 | 35838 ft | 476 kts | 57° |
| 2026-04-22 09:35 | -17.25133 | -32.14508 | 35912 ft | 477 kts | 57° |
| 2026-04-22 09:36 | -17.21736 | -32.08593 | 35984 ft | 477 kts | 57° |
| 2026-04-22 09:36 | -17.18309 | -32.02645 | 36051 ft | 478 kts | 57° |
| 2026-04-22 09:37 | -17.14868 | -31.96671 | 36046 ft | 479 kts | 57° |
| 2026-04-22 09:37 | -17.11435 | -31.90704 | 36036 ft | 479 kts | 56° |
| 2026-04-22 09:38 | -17.07995 | -31.84732 | 36051 ft | 479 kts | 56° |
| 2026-04-22 09:38 | -17.04543 | -31.78760 | 36050 ft | 480 kts | 56° |
| 2026-04-22 09:39 | -17.01103 | -31.72796 | 36049 ft | 480 kts | 56° |
| 2026-04-22 09:39 | -16.97659 | -31.66825 | 36043 ft | 479 kts | 56° |
| 2026-04-22 09:40 | -16.94207 | -31.60856 | 36054 ft | 480 kts | 56° |
| 2026-04-22 09:40 | -16.90751 | -31.54900 | 36054 ft | 480 kts | 56° |
| 2026-04-22 09:41 | -16.87294 | -31.48943 | 36052 ft | 480 kts | 55° |
| 2026-04-22 09:41 | -16.83837 | -31.42980 | 36040 ft | 479 kts | 55° |
| 2026-04-22 09:42 | -16.80370 | -31.37012 | 36054 ft | 481 kts | 55° |
| 2026-04-22 09:42 | -16.76912 | -31.31058 | 36033 ft | 481 kts | 54° |
| 2026-04-22 09:43 | -16.73435 | -31.25088 | 36031 ft | 480 kts | 54° |
| 2026-04-22 09:43 | -16.69984 | -31.19159 | 36034 ft | 481 kts | 54° |
| 2026-04-22 09:44 | -16.66516 | -31.13201 | 36048 ft | 481 kts | 54° |
| 2026-04-22 09:44 | -16.63041 | -31.07238 | 36038 ft | 481 kts | 53° |
| 2026-04-22 09:45 | -16.59556 | -31.01261 | 36043 ft | 482 kts | 53° |
| 2026-04-22 09:45 | -16.56069 | -30.95302 | 36040 ft | 482 kts | 53° |
| 2026-04-22 09:46 | -16.52583 | -30.89339 | 36036 ft | 482 kts | 53° |
| 2026-04-22 09:46 | -16.49093 | -30.83378 | 36041 ft | 482 kts | 53° |
| 2026-04-22 09:47 | -16.45606 | -30.77425 | 36041 ft | 482 kts | 53° |
| 2026-04-22 09:47 | -16.42117 | -30.71466 | 36039 ft | 481 kts | 52° |
| 2026-04-22 09:48 | -16.38624 | -30.65510 | 36037 ft | 481 kts | 52° |
| 2026-04-22 09:48 | -16.35136 | -30.59567 | 36042 ft | 480 kts | 52° |
| 2026-04-22 09:49 | -16.31647 | -30.53632 | 36042 ft | 480 kts | 52° |
| 2026-04-22 09:49 | -16.28183 | -30.47742 | 36043 ft | 480 kts | 52° |
| 2026-04-22 09:50 | -16.24702 | -30.41826 | 36040 ft | 479 kts | 52° |
| 2026-04-22 09:50 | -16.21225 | -30.35923 | 36038 ft | 478 kts | 52° |
| 2026-04-22 09:51 | -16.17749 | -30.30021 | 36037 ft | 478 kts | 52° |
| 2026-04-22 09:51 | -16.14282 | -30.24122 | 36038 ft | 477 kts | 52° |
| 2026-04-22 09:52 | -16.10821 | -30.18232 | 36039 ft | 477 kts | 52° |
| 2026-04-22 09:52 | -16.07352 | -30.12354 | 36040 ft | 477 kts | 52° |
| 2026-04-22 09:53 | -16.03885 | -30.06481 | 36046 ft | 476 kts | 52° |
| 2026-04-22 09:53 | -16.00390 | -30.00640 | 36042 ft | 475 kts | 51° |
| 2026-04-22 09:54 | -15.96695 | -29.94976 | 36035 ft | 473 kts | 49° |
| 2026-04-22 09:54 | -15.92967 | -29.89339 | 36036 ft | 473 kts | 49° |
| 2026-04-22 09:55 | -15.89265 | -29.83745 | 36040 ft | 472 kts | 49° |
| 2026-04-22 09:55 | -15.85543 | -29.78119 | 36040 ft | 472 kts | 49° |
| 2026-04-22 09:56 | -15.81814 | -29.72484 | 36035 ft | 472 kts | 49° |
| 2026-04-22 09:56 | -15.78093 | -29.66866 | 36043 ft | 471 kts | 49° |
| 2026-04-22 09:57 | -15.74364 | -29.61245 | 36037 ft | 471 kts | 49° |
| 2026-04-22 09:57 | -15.70670 | -29.55676 | 36038 ft | 471 kts | 49° |
| 2026-04-22 09:58 | -15.66948 | -29.50070 | 36041 ft | 472 kts | 49° |
| 2026-04-22 09:58 | -15.63220 | -29.44466 | 36039 ft | 472 kts | 49° |
| 2026-04-22 09:59 | -15.59490 | -29.38866 | 36036 ft | 471 kts | 49° |
| 2026-04-22 09:59 | -15.55762 | -29.33258 | 36040 ft | 471 kts | 49° |
| 2026-04-22 10:00 | -15.52034 | -29.27654 | 36037 ft | 471 kts | 49° |
| 2026-04-22 10:00 | -15.48333 | -29.22100 | 36035 ft | 471 kts | 49° |
| 2026-04-22 10:01 | -15.44602 | -29.16514 | 36036 ft | 470 kts | 49° |
| 2026-04-22 10:01 | -15.40877 | -29.10928 | 36037 ft | 470 kts | 49° |
| 2026-04-22 10:02 | -15.37151 | -29.05353 | 36038 ft | 471 kts | 49° |
| 2026-04-22 10:02 | -15.33429 | -28.99776 | 36031 ft | 471 kts | 49° |
| 2026-04-22 10:03 | -15.29704 | -28.94208 | 36034 ft | 470 kts | 49° |
| 2026-04-22 10:03 | -15.25976 | -28.88651 | 36041 ft | 470 kts | 49° |
| 2026-04-22 10:04 | -15.22277 | -28.83129 | 36037 ft | 470 kts | 50° |
| 2026-04-22 10:04 | -15.18555 | -28.77577 | 36031 ft | 469 kts | 50° |
| 2026-04-22 10:05 | -15.14844 | -28.72027 | 36037 ft | 469 kts | 50° |
| 2026-04-22 10:05 | -15.11120 | -28.66487 | 36043 ft | 469 kts | 50° |
| 2026-04-22 10:06 | -15.07999 | -28.61844 | 36038 ft | 469 kts | 50° |
| 2026-04-22 10:06 | -15.04291 | -28.56344 | 36038 ft | 469 kts | 50° |
| 2026-04-22 10:07 | -15.00571 | -28.50807 | 36030 ft | 469 kts | 50° |
| 2026-04-22 10:07 | -14.96844 | -28.45266 | 36042 ft | 469 kts | 50° |
| 2026-04-22 10:08 | -14.93121 | -28.39731 | 36021 ft | 469 kts | 50° |
| 2026-04-22 10:08 | -14.89382 | -28.34201 | 36033 ft | 468 kts | 50° |
| 2026-04-22 10:09 | -14.85659 | -28.28681 | 36035 ft | 467 kts | 50° |
| 2026-04-22 10:09 | -14.81936 | -28.23163 | 36031 ft | 467 kts | 50° |
| 2026-04-22 10:10 | -14.78206 | -28.17649 | 36028 ft | 467 kts | 50° |
| 2026-04-22 10:10 | -14.74482 | -28.12138 | 36028 ft | 466 kts | 50° |
| 2026-04-22 10:11 | -14.70766 | -28.06648 | 36029 ft | 466 kts | 50° |
| 2026-04-22 10:11 | -14.67045 | -28.01149 | 36028 ft | 466 kts | 50° |
| 2026-04-22 10:12 | -14.63337 | -27.95664 | 36020 ft | 466 kts | 50° |
| 2026-04-22 10:12 | -14.59612 | -27.90177 | 36027 ft | 465 kts | 50° |
| 2026-04-22 10:13 | -14.55918 | -27.84735 | 36031 ft | 465 kts | 50° |
| 2026-04-22 10:13 | -14.52207 | -27.79269 | 36032 ft | 464 kts | 50° |
| 2026-04-22 10:14 | -14.48501 | -27.73811 | 36025 ft | 464 kts | 50° |
| 2026-04-22 10:14 | -14.44795 | -27.68352 | 36023 ft | 464 kts | 50° |
| 2026-04-22 10:15 | -14.41084 | -27.62907 | 36023 ft | 464 kts | 50° |
| 2026-04-22 10:15 | -14.37382 | -27.57470 | 36030 ft | 464 kts | 50° |
| 2026-04-22 10:16 | -14.33680 | -27.52035 | 36030 ft | 463 kts | 50° |
| 2026-04-22 10:16 | -14.30006 | -27.46629 | 36025 ft | 463 kts | 50° |
| 2026-04-22 10:17 | -14.26301 | -27.41196 | 36027 ft | 462 kts | 50° |
| 2026-04-22 10:17 | -14.22599 | -27.35779 | 36030 ft | 462 kts | 50° |
| 2026-04-22 10:18 | -14.18900 | -27.30362 | 36021 ft | 462 kts | 50° |
| 2026-04-22 10:18 | -14.15201 | -27.24952 | 36026 ft | 462 kts | 50° |
| 2026-04-22 10:19 | -14.11496 | -27.19537 | 36025 ft | 461 kts | 50° |
| 2026-04-22 10:19 | -14.07825 | -27.14174 | 36025 ft | 461 kts | 50° |
| 2026-04-22 10:20 | -14.04127 | -27.08776 | 36024 ft | 461 kts | 50° |
| 2026-04-22 10:20 | -14.00434 | -27.03377 | 36023 ft | 461 kts | 50° |
| 2026-04-22 10:21 | -13.96742 | -26.97984 | 36023 ft | 461 kts | 50° |
| 2026-04-22 10:21 | -13.93039 | -26.92590 | 36025 ft | 461 kts | 50° |
| 2026-04-22 10:22 | -13.89354 | -26.87193 | 36025 ft | 460 kts | 50° |
| 2026-04-22 10:22 | -13.85660 | -26.81796 | 36024 ft | 460 kts | 50° |
| 2026-04-22 10:23 | -13.81958 | -26.76425 | 36021 ft | 460 kts | 50° |
| 2026-04-22 10:23 | -13.78234 | -26.71045 | 36020 ft | 461 kts | 50° |
| 2026-04-22 10:24 | -13.74559 | -26.65709 | 36022 ft | 460 kts | 50° |
| 2026-04-22 10:24 | -13.70856 | -26.60338 | 36022 ft | 460 kts | 50° |
| 2026-04-22 10:25 | -13.67156 | -26.54970 | 36022 ft | 460 kts | 50° |
| 2026-04-22 10:25 | -13.63461 | -26.49610 | 36023 ft | 460 kts | 50° |
| 2026-04-22 10:26 | -13.59766 | -26.44247 | 36021 ft | 459 kts | 50° |
| 2026-04-22 10:26 | -13.56065 | -26.38888 | 36023 ft | 459 kts | 50° |
| 2026-04-22 10:27 | -13.52375 | -26.33538 | 36022 ft | 459 kts | 50° |
| 2026-04-22 10:27 | -13.48677 | -26.28196 | 36023 ft | 459 kts | 50° |
| 2026-04-22 10:28 | -13.44983 | -26.22852 | 36026 ft | 458 kts | 50° |
| 2026-04-22 10:28 | -13.41299 | -26.17523 | 36027 ft | 458 kts | 50° |
| 2026-04-22 10:29 | -13.37609 | -26.12208 | 36022 ft | 458 kts | 50° |
| 2026-04-22 10:29 | -13.33923 | -26.06885 | 36021 ft | 457 kts | 50° |
| 2026-04-22 10:30 | -13.30266 | -26.01615 | 36021 ft | 456 kts | 50° |
| 2026-04-22 10:30 | -13.26596 | -25.96320 | 36019 ft | 456 kts | 50° |
| 2026-04-22 10:31 | -13.22929 | -25.91033 | 36020 ft | 455 kts | 51° |
| 2026-04-22 10:31 | -13.19261 | -25.85752 | 36019 ft | 453 kts | 50° |
| 2026-04-22 10:32 | -13.15598 | -25.80487 | 36021 ft | 453 kts | 51° |
| 2026-04-22 10:32 | -13.11932 | -25.75219 | 36019 ft | 452 kts | 50° |
| 2026-04-22 10:33 | -13.08277 | -25.69961 | 36019 ft | 451 kts | 51° |
| 2026-04-22 10:33 | -13.04651 | -25.64750 | 36019 ft | 451 kts | 51° |
| 2026-04-22 10:34 | -13.00977 | -25.59475 | 36019 ft | 451 kts | 51° |
| 2026-04-22 10:34 | -12.97348 | -25.54269 | 36019 ft | 451 kts | 51° |
| 2026-04-22 10:35 | -12.93711 | -25.49031 | 36016 ft | 451 kts | 51° |
| 2026-04-22 10:35 | -12.90071 | -25.43794 | 36017 ft | 451 kts | 51° |
| 2026-04-22 10:36 | -12.86424 | -25.38568 | 36018 ft | 451 kts | 50° |
| 2026-04-22 10:36 | -12.82780 | -25.33358 | 36015 ft | 450 kts | 50° |
| 2026-04-22 10:37 | -12.77313 | -25.25540 | 36019 ft | 449 kts | 51° |
| 2026-04-22 10:38 | -12.73672 | -25.20322 | 36018 ft | 449 kts | 50° |
| 2026-04-22 10:38 | -12.70040 | -25.15173 | 36013 ft | 450 kts | 50° |
| 2026-04-22 10:39 | -12.66390 | -25.09981 | 36017 ft | 449 kts | 50° |
| 2026-04-22 10:39 | -12.62754 | -25.04788 | 36016 ft | 449 kts | 50° |
| 2026-04-22 10:40 | -12.59104 | -24.99592 | 36013 ft | 450 kts | 51° |
| 2026-04-22 10:40 | -12.55455 | -24.94386 | 36016 ft | 449 kts | 51° |
| 2026-04-22 10:41 | -12.51805 | -24.89185 | 36021 ft | 450 kts | 51° |
| 2026-04-22 10:41 | -12.48157 | -24.83994 | 36017 ft | 449 kts | 51° |
| 2026-04-22 10:42 | -12.44514 | -24.78803 | 36020 ft | 449 kts | 51° |
| 2026-04-22 10:42 | -12.40867 | -24.73618 | 36017 ft | 448 kts | 51° |
| 2026-04-22 10:43 | -12.37246 | -24.68476 | 36023 ft | 448 kts | 51° |
| 2026-04-22 10:43 | -12.33581 | -24.63269 | 36020 ft | 449 kts | 51° |
| 2026-04-22 10:44 | -12.29957 | -24.58130 | 36015 ft | 448 kts | 51° |
| 2026-04-22 10:44 | -12.26314 | -24.52953 | 36018 ft | 447 kts | 51° |
| 2026-04-22 10:45 | -12.22671 | -24.47786 | 36018 ft | 448 kts | 51° |
| 2026-04-22 10:45 | -12.19030 | -24.42628 | 36016 ft | 447 kts | 51° |
| 2026-04-22 10:46 | -12.15393 | -24.37472 | 36018 ft | 447 kts | 51° |
| 2026-04-22 10:46 | -12.11752 | -24.32321 | 36017 ft | 447 kts | 51° |
| 2026-04-22 10:47 | -12.08112 | -24.27167 | 36014 ft | 447 kts | 51° |
| 2026-04-22 10:47 | -12.04472 | -24.22016 | 36016 ft | 447 kts | 51° |
| 2026-04-22 10:48 | -12.00861 | -24.16915 | 36013 ft | 446 kts | 51° |
| 2026-04-22 10:48 | -11.97232 | -24.11785 | 36015 ft | 445 kts | 51° |
| 2026-04-22 10:49 | -11.93599 | -24.06657 | 36016 ft | 445 kts | 51° |
| 2026-04-22 10:49 | -11.89966 | -24.01528 | 36017 ft | 445 kts | 51° |
| 2026-04-22 10:50 | -11.86344 | -23.96417 | 36014 ft | 444 kts | 51° |
| 2026-04-22 10:50 | -11.82714 | -23.91301 | 36014 ft | 444 kts | 51° |
| 2026-04-22 10:51 | -11.79707 | -23.87061 | 36018 ft | 444 kts | 51° |
| 2026-04-22 10:51 | -11.75498 | -23.81128 | 36013 ft | 443 kts | 51° |
| 2026-04-22 10:52 | -11.72489 | -23.76894 | 36014 ft | 442 kts | 51° |
| 2026-04-22 10:52 | -11.68857 | -23.71778 | 36013 ft | 442 kts | 51° |
| 2026-04-22 10:53 | -11.65250 | -23.66698 | 36017 ft | 441 kts | 51° |
| 2026-04-22 10:53 | -11.61664 | -23.61667 | 36010 ft | 441 kts | 51° |
| 2026-04-22 10:54 | -11.58056 | -23.56594 | 36009 ft | 441 kts | 51° |
| 2026-04-22 10:54 | -11.54445 | -23.51529 | 36015 ft | 441 kts | 51° |
| 2026-04-22 10:55 | -11.50841 | -23.46470 | 36015 ft | 441 kts | 51° |
| 2026-04-22 10:55 | -11.47237 | -23.41409 | 36016 ft | 442 kts | 51° |
| 2026-04-22 10:56 | -11.43637 | -23.36350 | 36015 ft | 440 kts | 51° |
| 2026-04-22 10:56 | -11.40034 | -23.31311 | 36016 ft | 440 kts | 51° |
| 2026-04-22 10:57 | -11.36450 | -23.26254 | 36011 ft | 440 kts | 51° |
| 2026-04-22 10:57 | -11.32858 | -23.21212 | 36005 ft | 439 kts | 51° |
| 2026-04-22 10:58 | -11.29275 | -23.16207 | 36009 ft | 439 kts | 51° |
| 2026-04-22 10:58 | -11.25662 | -23.11181 | 36013 ft | 439 kts | 51° |
| 2026-04-22 10:59 | -11.22062 | -23.06156 | 36010 ft | 439 kts | 51° |
| 2026-04-22 10:59 | -11.18459 | -23.01127 | 36009 ft | 439 kts | 51° |
| 2026-04-22 11:00 | -11.14861 | -22.96100 | 36010 ft | 440 kts | 51° |
| 2026-04-22 11:00 | -11.11260 | -22.91072 | 36009 ft | 439 kts | 51° |
| 2026-04-22 11:01 | -11.07656 | -22.86047 | 36009 ft | 439 kts | 51° |
| 2026-04-22 11:01 | -11.04050 | -22.81014 | 36010 ft | 439 kts | 51° |
| 2026-04-22 11:02 | -11.00451 | -22.75994 | 36008 ft | 439 kts | 51° |
| 2026-04-22 11:02 | -10.96861 | -22.70962 | 36005 ft | 439 kts | 51° |
| 2026-04-22 11:03 | -10.93261 | -22.65939 | 36007 ft | 439 kts | 51° |
| 2026-04-22 11:03 | -10.89655 | -22.60912 | 36005 ft | 440 kts | 51° |
| 2026-04-22 11:04 | -10.86068 | -22.55918 | 36008 ft | 439 kts | 51° |
| 2026-04-22 11:04 | -10.82459 | -22.50897 | 36010 ft | 440 kts | 51° |
| 2026-04-22 11:05 | -10.78850 | -22.45880 | 36007 ft | 440 kts | 51° |
| 2026-04-22 11:05 | -10.75232 | -22.40851 | 36005 ft | 440 kts | 51° |
| 2026-04-22 11:06 | -10.71612 | -22.35824 | 36002 ft | 440 kts | 51° |
| 2026-04-22 11:06 | -10.67968 | -22.30807 | 36002 ft | 441 kts | 51° |
| 2026-04-22 11:07 | -10.64342 | -22.25781 | 36002 ft | 441 kts | 51° |
| 2026-04-22 11:07 | -10.60719 | -22.20749 | 36005 ft | 441 kts | 51° |
| 2026-04-22 11:08 | -10.57113 | -22.15750 | 36003 ft | 441 kts | 51° |
| 2026-04-22 11:08 | -10.53480 | -22.10727 | 36004 ft | 441 kts | 51° |
| 2026-04-22 11:09 | -10.49852 | -22.05697 | 36004 ft | 441 kts | 51° |
| 2026-04-22 11:09 | -10.46222 | -22.00673 | 36005 ft | 441 kts | 51° |
| 2026-04-22 11:10 | -10.42591 | -21.95651 | 36002 ft | 440 kts | 51° |
| 2026-04-22 11:10 | -10.38973 | -21.90640 | 36004 ft | 440 kts | 51° |
| 2026-04-22 11:11 | -10.35348 | -21.85633 | 36001 ft | 440 kts | 51° |
| 2026-04-22 11:11 | -10.31728 | -21.80627 | 35999 ft | 439 kts | 51° |
| 2026-04-22 11:12 | -10.28113 | -21.75633 | 36001 ft | 439 kts | 51° |
| 2026-04-22 11:12 | -10.24495 | -21.70628 | 36000 ft | 439 kts | 51° |
| 2026-04-22 11:13 | -10.20871 | -21.65634 | 35996 ft | 438 kts | 51° |
| 2026-04-22 11:13 | -10.17259 | -21.60649 | 35993 ft | 438 kts | 51° |
| 2026-04-22 11:14 | -10.13643 | -21.55662 | 35995 ft | 438 kts | 51° |
| 2026-04-22 11:14 | -10.10033 | -21.50678 | 35997 ft | 438 kts | 51° |
| 2026-04-22 11:15 | -10.06415 | -21.45705 | 35997 ft | 438 kts | 51° |
| 2026-04-22 11:15 | -10.02829 | -21.40767 | 35995 ft | 438 kts | 51° |
| 2026-04-22 11:16 | -9.99215 | -21.35788 | 35996 ft | 438 kts | 51° |
| 2026-04-22 11:16 | -9.95601 | -21.30818 | 35991 ft | 438 kts | 51° |
| 2026-04-22 11:17 | -9.91984 | -21.25843 | 35988 ft | 438 kts | 51° |
| 2026-04-22 11:17 | -9.88373 | -21.20878 | 35992 ft | 437 kts | 51° |
| 2026-04-22 11:18 | -9.84761 | -21.15913 | 35997 ft | 437 kts | 51° |
| 2026-04-22 11:18 | -9.81144 | -21.10945 | 35992 ft | 437 kts | 51° |
| 2026-04-22 11:19 | -9.77533 | -21.05981 | 35992 ft | 437 kts | 51° |
| 2026-04-22 11:19 | -9.73915 | -21.01022 | 35988 ft | 438 kts | 51° |
| 2026-04-22 11:20 | -9.70301 | -20.96062 | 35987 ft | 438 kts | 51° |
| 2026-04-22 11:20 | -9.66707 | -20.91128 | 35989 ft | 438 kts | 51° |
| 2026-04-22 11:21 | -9.63087 | -20.86164 | 35987 ft | 438 kts | 51° |
| 2026-04-22 11:21 | -9.59459 | -20.81195 | 35989 ft | 439 kts | 51° |
| 2026-04-22 11:22 | -9.55826 | -20.76219 | 35990 ft | 439 kts | 51° |
| 2026-04-22 11:22 | -9.52189 | -20.71242 | 35985 ft | 440 kts | 51° |
| 2026-04-22 11:23 | -9.48542 | -20.66250 | 35986 ft | 440 kts | 51° |
| 2026-04-22 11:23 | -9.44896 | -20.61262 | 35988 ft | 441 kts | 51° |
| 2026-04-22 11:24 | -9.41248 | -20.56271 | 35986 ft | 441 kts | 51° |
| 2026-04-22 11:24 | -9.37588 | -20.51265 | 35985 ft | 442 kts | 51° |
| 2026-04-22 11:25 | -9.33927 | -20.46267 | 35985 ft | 442 kts | 51° |
| 2026-04-22 11:25 | -9.30268 | -20.41270 | 35981 ft | 442 kts | 51° |
| 2026-04-22 11:26 | -9.26632 | -20.36298 | 35979 ft | 442 kts | 51° |
| 2026-04-22 11:26 | -9.22960 | -20.31293 | 35978 ft | 442 kts | 51° |
| 2026-04-22 11:27 | -9.19290 | -20.26287 | 35979 ft | 442 kts | 51° |
| 2026-04-22 11:27 | -9.15625 | -20.21290 | 35979 ft | 442 kts | 51° |
| 2026-04-22 11:28 | -9.11958 | -20.16288 | 35978 ft | 442 kts | 51° |
| 2026-04-22 11:28 | -9.08296 | -20.11297 | 35979 ft | 441 kts | 51° |
| 2026-04-22 11:29 | -9.04633 | -20.06310 | 35976 ft | 441 kts | 52° |
| 2026-04-22 11:29 | -9.00976 | -20.01332 | 35979 ft | 440 kts | 51° |
| 2026-04-22 11:30 | -8.96924 | -19.96758 | 35980 ft | 439 kts | 44° |
| 2026-04-22 11:30 | -8.92662 | -19.92333 | 35978 ft | 439 kts | 44° |
| 2026-04-22 11:31 | -8.88394 | -19.87903 | 35981 ft | 439 kts | 45° |
| 2026-04-22 11:31 | -8.84136 | -19.83463 | 35974 ft | 440 kts | 45° |
| 2026-04-22 11:32 | -8.79875 | -19.79021 | 35976 ft | 440 kts | 45° |
| 2026-04-22 11:32 | -8.75600 | -19.74558 | 35975 ft | 441 kts | 45° |
| 2026-04-22 11:33 | -8.71348 | -19.70137 | 35976 ft | 441 kts | 45° |
| 2026-04-22 11:33 | -8.67063 | -19.65678 | 35977 ft | 442 kts | 45° |
| 2026-04-22 11:34 | -8.62778 | -19.61214 | 35973 ft | 443 kts | 45° |
| 2026-04-22 11:34 | -8.58484 | -19.56750 | 35977 ft | 442 kts | 45° |
| 2026-04-22 11:35 | -8.54197 | -19.52287 | 35971 ft | 443 kts | 45° |
| 2026-04-22 11:35 | -8.49899 | -19.47822 | 35976 ft | 443 kts | 45° |
| 2026-04-22 11:36 | -8.45604 | -19.43368 | 35970 ft | 443 kts | 45° |
| 2026-04-22 11:36 | -8.41349 | -19.38925 | 35974 ft | 442 kts | 45° |
| 2026-04-22 11:37 | -8.37066 | -19.34464 | 35974 ft | 442 kts | 45° |
| 2026-04-22 11:37 | -8.32776 | -19.30009 | 35974 ft | 442 kts | 44° |
| 2026-04-22 11:38 | -8.28487 | -19.25556 | 35973 ft | 442 kts | 44° |
| 2026-04-22 11:38 | -8.22777 | -19.19639 | 35972 ft | 441 kts | 44° |
| 2026-04-22 11:39 | -8.17804 | -19.14474 | 35969 ft | 441 kts | 44° |
| 2026-04-22 11:39 | -8.14224 | -19.10758 | 35970 ft | 440 kts | 44° |
| 2026-04-22 11:40 | -8.09954 | -19.06325 | 35970 ft | 440 kts | 44° |
| 2026-04-22 11:40 | -8.05698 | -19.01924 | 35971 ft | 440 kts | 44° |
| 2026-04-22 11:41 | -8.01398 | -18.97474 | 35968 ft | 440 kts | 44° |
| 2026-04-22 11:41 | -7.97145 | -18.93109 | 35965 ft | 439 kts | 44° |
| 2026-04-22 11:42 | -7.92875 | -18.88701 | 35964 ft | 439 kts | 44° |
| 2026-04-22 11:42 | -7.88612 | -18.84297 | 35969 ft | 439 kts | 44° |
| 2026-04-22 11:43 | -7.84358 | -18.79894 | 35964 ft | 438 kts | 45° |
| 2026-04-22 11:43 | -7.80112 | -18.75463 | 35963 ft | 438 kts | 44° |
| 2026-04-22 11:44 | -7.75855 | -18.71062 | 35965 ft | 438 kts | 44° |
| 2026-04-22 11:44 | -7.71597 | -18.66663 | 35968 ft | 438 kts | 44° |
| 2026-04-22 11:45 | -7.67343 | -18.62267 | 35966 ft | 438 kts | 44° |
| 2026-04-22 11:45 | -7.63120 | -18.57904 | 35963 ft | 438 kts | 44° |
| 2026-04-22 11:46 | -7.58853 | -18.53532 | 35965 ft | 438 kts | 44° |
| 2026-04-22 11:46 | -7.54606 | -18.49125 | 35963 ft | 438 kts | 44° |
| 2026-04-22 11:47 | -7.50333 | -18.44742 | 35965 ft | 438 kts | 44° |
| 2026-04-22 11:47 | -7.46062 | -18.40348 | 35964 ft | 439 kts | 44° |
| 2026-04-22 11:48 | -7.41799 | -18.35948 | 35962 ft | 439 kts | 44° |
| 2026-04-22 11:48 | -7.37522 | -18.31542 | 35964 ft | 440 kts | 44° |
| 2026-04-22 11:49 | -7.33242 | -18.27133 | 35966 ft | 440 kts | 44° |
| 2026-04-22 11:49 | -7.28945 | -18.22711 | 35961 ft | 441 kts | 44° |
| 2026-04-22 11:50 | -7.24664 | -18.18296 | 35961 ft | 441 kts | 44° |
| 2026-04-22 11:50 | -7.20367 | -18.13870 | 35961 ft | 441 kts | 44° |
| 2026-04-22 11:51 | -7.16101 | -18.09479 | 35960 ft | 442 kts | 44° |
| 2026-04-22 11:51 | -7.11800 | -18.05056 | 35964 ft | 441 kts | 44° |
| 2026-04-22 11:52 | -7.07497 | -18.00632 | 35965 ft | 442 kts | 44° |
| 2026-04-22 11:52 | -7.03197 | -17.96215 | 35958 ft | 442 kts | 44° |
| 2026-04-22 11:53 | -6.98901 | -17.91794 | 35965 ft | 441 kts | 44° |
| 2026-04-22 11:53 | -6.94603 | -17.87379 | 35957 ft | 441 kts | 44° |
| 2026-04-22 11:54 | -6.90302 | -17.82961 | 35958 ft | 441 kts | 44° |
| 2026-04-22 11:54 | -6.86040 | -17.78579 | 35961 ft | 441 kts | 44° |
| 2026-04-22 11:55 | -6.81748 | -17.74170 | 35960 ft | 440 kts | 44° |
| 2026-04-22 11:55 | -6.77462 | -17.69776 | 35960 ft | 440 kts | 44° |
| 2026-04-22 11:56 | -6.73175 | -17.65376 | 35957 ft | 440 kts | 44° |
| 2026-04-22 11:56 | -6.68890 | -17.60978 | 35955 ft | 440 kts | 44° |
| 2026-04-22 11:57 | -6.64629 | -17.56605 | 35955 ft | 440 kts | 44° |
| 2026-04-22 11:57 | -6.60357 | -17.52202 | 35956 ft | 439 kts | 44° |
| 2026-04-22 11:58 | -6.56085 | -17.47809 | 35958 ft | 439 kts | 44° |
| 2026-04-22 11:58 | -6.51808 | -17.43434 | 35959 ft | 439 kts | 44° |
| 2026-04-22 11:59 | -6.47521 | -17.39059 | 35954 ft | 438 kts | 44° |
| 2026-04-22 11:59 | -6.43246 | -17.34688 | 35957 ft | 438 kts | 44° |
| 2026-04-22 12:00 | -6.38976 | -17.30315 | 35953 ft | 438 kts | 44° |
| 2026-04-22 12:00 | -6.34710 | -17.25949 | 35949 ft | 438 kts | 44° |
| 2026-04-22 12:01 | -6.30469 | -17.21606 | 35950 ft | 438 kts | 45° |
| 2026-04-22 12:01 | -6.26205 | -17.17233 | 35947 ft | 438 kts | 44° |
| 2026-04-22 12:02 | -6.21926 | -17.12859 | 35948 ft | 438 kts | 44° |
| 2026-04-22 12:02 | -6.17656 | -17.08493 | 35951 ft | 438 kts | 44° |
| 2026-04-22 12:03 | -6.13393 | -17.04133 | 35949 ft | 438 kts | 45° |
| 2026-04-22 12:03 | -6.09126 | -16.99771 | 35953 ft | 437 kts | 44° |
| 2026-04-22 12:04 | -6.04861 | -16.95408 | 35950 ft | 437 kts | 45° |
| 2026-04-22 12:04 | -6.00591 | -16.91049 | 35946 ft | 437 kts | 44° |
| 2026-04-22 12:05 | -5.96356 | -16.86723 | 35948 ft | 437 kts | 44° |
| 2026-04-22 12:05 | -5.92093 | -16.82365 | 35950 ft | 438 kts | 44° |
| 2026-04-22 12:06 | -5.87822 | -16.77994 | 35949 ft | 438 kts | 45° |
| 2026-04-22 12:06 | -5.83580 | -16.73604 | 35947 ft | 439 kts | 48° |
| 2026-04-22 12:07 | -5.79925 | -16.68682 | 35952 ft | 440 kts | 53° |
| 2026-04-22 12:07 | -5.76388 | -16.63659 | 35950 ft | 440 kts | 53° |
| 2026-04-22 12:08 | -5.72844 | -16.58653 | 35942 ft | 440 kts | 53° |
| 2026-04-22 12:08 | -5.69297 | -16.53645 | 35944 ft | 440 kts | 53° |
| 2026-04-22 12:09 | -5.65766 | -16.48673 | 35945 ft | 440 kts | 53° |
| 2026-04-22 12:09 | -5.62213 | -16.43666 | 35948 ft | 441 kts | 53° |
| 2026-04-22 12:10 | -5.58646 | -16.38651 | 35950 ft | 441 kts | 53° |
| 2026-04-22 12:10 | -5.55081 | -16.33632 | 35944 ft | 441 kts | 53° |
| 2026-04-22 12:11 | -5.51513 | -16.28609 | 35942 ft | 442 kts | 53° |
| 2026-04-22 12:11 | -5.47971 | -16.23617 | 35937 ft | 442 kts | 53° |
| 2026-04-22 12:12 | -5.44401 | -16.18590 | 35942 ft | 442 kts | 53° |
| 2026-04-22 12:12 | -5.40823 | -16.13560 | 35943 ft | 442 kts | 53° |
| 2026-04-22 12:13 | -5.37250 | -16.08534 | 35944 ft | 442 kts | 53° |
| 2026-04-22 12:13 | -5.33673 | -16.03513 | 35940 ft | 442 kts | 53° |
| 2026-04-22 12:14 | -5.30095 | -15.98479 | 35941 ft | 442 kts | 54° |
| 2026-04-22 12:14 | -5.26531 | -15.93453 | 35942 ft | 442 kts | 54° |
| 2026-04-22 12:15 | -5.22965 | -15.88431 | 35941 ft | 442 kts | 54° |
| 2026-04-22 12:15 | -5.19415 | -15.83446 | 35941 ft | 442 kts | 54° |
| 2026-04-22 12:16 | -5.15847 | -15.78435 | 35943 ft | 441 kts | 54° |
| 2026-04-22 12:16 | -5.12273 | -15.73417 | 35940 ft | 441 kts | 54° |
| 2026-04-22 12:17 | -5.08701 | -15.68406 | 35942 ft | 441 kts | 54° |
| 2026-04-22 12:17 | -5.05134 | -15.63400 | 35938 ft | 441 kts | 54° |
| 2026-04-22 12:18 | -5.01571 | -15.58393 | 35937 ft | 441 kts | 54° |
| 2026-04-22 12:18 | -4.98025 | -15.53427 | 35934 ft | 441 kts | 53° |
| 2026-04-22 12:19 | -4.94449 | -15.48441 | 35933 ft | 440 kts | 54° |
| 2026-04-22 12:19 | -4.90880 | -15.43440 | 35931 ft | 440 kts | 54° |
| 2026-04-22 12:20 | -4.87322 | -15.38449 | 35928 ft | 440 kts | 54° |
| 2026-04-22 12:20 | -4.83754 | -15.33448 | 35931 ft | 440 kts | 54° |
| 2026-04-22 12:21 | -4.80192 | -15.28457 | 35933 ft | 440 kts | 54° |
| 2026-04-22 12:21 | -4.76630 | -15.23456 | 35932 ft | 440 kts | 54° |
| 2026-04-22 12:22 | -4.73067 | -15.18460 | 35930 ft | 440 kts | 54° |
| 2026-04-22 12:22 | -4.69519 | -15.13458 | 35932 ft | 440 kts | 54° |
| 2026-04-22 12:23 | -4.65946 | -15.08485 | 35933 ft | 440 kts | 54° |
| 2026-04-22 12:23 | -4.62377 | -15.03498 | 35930 ft | 440 kts | 54° |
| 2026-04-22 12:24 | -4.58815 | -14.98512 | 35930 ft | 440 kts | 54° |
| 2026-04-22 12:24 | -4.55245 | -14.93519 | 35935 ft | 440 kts | 54° |
| 2026-04-22 12:25 | -4.51699 | -14.88558 | 35929 ft | 441 kts | 54° |
| 2026-04-22 12:25 | -4.48133 | -14.83568 | 35931 ft | 441 kts | 54° |
| 2026-04-22 12:26 | -4.44561 | -14.78574 | 35930 ft | 441 kts | 54° |
| 2026-04-22 12:26 | -4.40987 | -14.73576 | 35931 ft | 441 kts | 54° |
| 2026-04-22 12:27 | -4.37418 | -14.68586 | 35930 ft | 440 kts | 54° |
| 2026-04-22 12:27 | -4.34452 | -14.64439 | 35930 ft | 440 kts | 54° |
| 2026-04-22 12:28 | -4.30884 | -14.59457 | 35931 ft | 440 kts | 54° |
| 2026-04-22 12:28 | -4.27320 | -14.54477 | 35931 ft | 440 kts | 54° |
| 2026-04-22 12:29 | -4.23757 | -14.49495 | 35928 ft | 440 kts | 54° |
| 2026-04-22 12:29 | -4.20191 | -14.44513 | 35925 ft | 439 kts | 54° |
| 2026-04-22 12:30 | -4.14854 | -14.37056 | 35929 ft | 439 kts | 54° |
| 2026-04-22 12:31 | -4.11290 | -14.32082 | 35928 ft | 439 kts | 54° |
| 2026-04-22 12:31 | -4.07733 | -14.27115 | 35925 ft | 439 kts | 54° |
| 2026-04-22 12:32 | -4.04189 | -14.22178 | 35926 ft | 439 kts | 54° |
| 2026-04-22 12:32 | -3.98845 | -14.14717 | 35924 ft | 439 kts | 54° |
| 2026-04-22 12:33 | -3.95284 | -14.09730 | 35924 ft | 439 kts | 54° |
| 2026-04-22 12:33 | -3.91721 | -14.04753 | 35923 ft | 440 kts | 54° |
| 2026-04-22 12:34 | -3.88154 | -13.99774 | 35925 ft | 440 kts | 54° |
| 2026-04-22 12:34 | -3.84585 | -13.94797 | 35924 ft | 440 kts | 54° |
| 2026-04-22 12:35 | -3.81017 | -13.89818 | 35921 ft | 440 kts | 54° |
| 2026-04-22 12:35 | -3.77444 | -13.84831 | 35924 ft | 441 kts | 54° |
| 2026-04-22 12:36 | -3.73878 | -13.79888 | 35921 ft | 441 kts | 54° |
| 2026-04-22 12:36 | -3.70293 | -13.74900 | 35926 ft | 441 kts | 54° |
| 2026-04-22 12:37 | -3.66710 | -13.69914 | 35924 ft | 441 kts | 54° |
| 2026-04-22 12:37 | -3.63129 | -13.64921 | 35922 ft | 442 kts | 54° |
| 2026-04-22 12:38 | -3.59537 | -13.59930 | 35922 ft | 442 kts | 54° |
| 2026-04-22 12:38 | -3.55948 | -13.54927 | 35925 ft | 442 kts | 54° |
| 2026-04-22 12:39 | -3.50559 | -13.47422 | 35920 ft | 442 kts | 54° |
| 2026-04-22 12:40 | -3.46969 | -13.42422 | 35921 ft | 443 kts | 54° |
| 2026-04-22 12:40 | -3.43368 | -13.37414 | 35924 ft | 443 kts | 54° |
| 2026-04-22 12:41 | -3.39771 | -13.32409 | 35921 ft | 443 kts | 54° |
| 2026-04-22 12:41 | -3.36192 | -13.27427 | 35921 ft | 443 kts | 54° |
| 2026-04-22 12:42 | -3.32592 | -13.22421 | 35920 ft | 443 kts | 54° |
| 2026-04-22 12:42 | -3.28988 | -13.17405 | 35923 ft | 443 kts | 54° |
| 2026-04-22 12:43 | -3.25385 | -13.12395 | 35922 ft | 443 kts | 54° |
| 2026-04-22 12:43 | -3.21783 | -13.07389 | 35922 ft | 444 kts | 54° |
| 2026-04-22 12:44 | -3.18179 | -13.02370 | 35921 ft | 444 kts | 54° |
| 2026-04-22 12:44 | -3.14591 | -12.97390 | 35922 ft | 444 kts | 54° |
| 2026-04-22 12:45 | -3.10982 | -12.92377 | 35922 ft | 444 kts | 54° |
| 2026-04-22 12:45 | -3.07373 | -12.87355 | 35920 ft | 444 kts | 54° |
| 2026-04-22 12:46 | -3.03760 | -12.82330 | 35922 ft | 444 kts | 54° |
| 2026-04-22 12:46 | -3.00149 | -12.77306 | 35920 ft | 445 kts | 55° |
| 2026-04-22 12:47 | -2.96533 | -12.72283 | 35921 ft | 445 kts | 54° |
| 2026-04-22 12:47 | -2.92912 | -12.67264 | 35923 ft | 445 kts | 55° |
| 2026-04-22 12:48 | -2.89294 | -12.62236 | 35923 ft | 445 kts | 55° |
| 2026-04-22 12:48 | -2.85703 | -12.57243 | 35922 ft | 445 kts | 55° |
| 2026-04-22 12:49 | -2.82084 | -12.52215 | 35919 ft | 445 kts | 55° |
| 2026-04-22 12:49 | -2.78459 | -12.47191 | 35915 ft | 445 kts | 55° |
| 2026-04-22 12:50 | -2.74846 | -12.42166 | 35918 ft | 445 kts | 55° |
| 2026-04-22 12:50 | -2.71228 | -12.37150 | 35918 ft | 444 kts | 55° |
| 2026-04-22 12:51 | -2.67613 | -12.32130 | 35919 ft | 444 kts | 55° |
| 2026-04-22 12:51 | -2.64008 | -12.27124 | 35917 ft | 444 kts | 55° |
| 2026-04-22 12:52 | -2.60422 | -12.22108 | 35916 ft | 443 kts | 55° |
| 2026-04-22 12:52 | -2.56820 | -12.17107 | 35918 ft | 443 kts | 55° |
| 2026-04-22 12:53 | -2.53211 | -12.12107 | 35919 ft | 442 kts | 55° |
| 2026-04-22 12:53 | -2.49614 | -12.07121 | 35914 ft | 442 kts | 55° |
| 2026-04-22 12:54 | -2.46022 | -12.02131 | 35915 ft | 442 kts | 55° |
| 2026-04-22 12:54 | -2.42420 | -11.97134 | 35918 ft | 442 kts | 55° |
| 2026-04-22 12:55 | -2.38835 | -11.92173 | 35918 ft | 443 kts | 55° |
| 2026-04-22 12:55 | -2.35221 | -11.87189 | 35917 ft | 443 kts | 55° |
| 2026-04-22 12:56 | -2.31612 | -11.82190 | 35915 ft | 443 kts | 55° |
| 2026-04-22 12:56 | -2.28007 | -11.77197 | 35915 ft | 443 kts | 55° |
| 2026-04-22 12:57 | -2.24397 | -11.72193 | 35913 ft | 443 kts | 55° |
| 2026-04-22 12:57 | -2.20795 | -11.67198 | 35911 ft | 443 kts | 55° |
| 2026-04-22 12:58 | -2.17187 | -11.62196 | 35911 ft | 443 kts | 55° |
| 2026-04-22 12:58 | -2.13586 | -11.57193 | 35914 ft | 443 kts | 55° |
| 2026-04-22 12:59 | -2.10017 | -11.52230 | 35914 ft | 443 kts | 55° |
| 2026-04-22 12:59 | -2.06411 | -11.47235 | 35910 ft | 442 kts | 55° |
| 2026-04-22 13:00 | -2.02813 | -11.42249 | 35911 ft | 442 kts | 55° |
| 2026-04-22 13:00 | -1.99218 | -11.37259 | 35913 ft | 442 kts | 55° |
| 2026-04-22 13:01 | -1.95619 | -11.32272 | 35913 ft | 442 kts | 55° |
| 2026-04-22 13:01 | -1.92021 | -11.27286 | 35910 ft | 442 kts | 55° |
| 2026-04-22 13:02 | -1.88420 | -11.22303 | 35907 ft | 442 kts | 55° |
| 2026-04-22 13:02 | -1.84823 | -11.17317 | 35907 ft | 442 kts | 55° |
| 2026-04-22 13:03 | -1.81232 | -11.12340 | 35904 ft | 441 kts | 55° |
| 2026-04-22 13:03 | -1.77630 | -11.07364 | 35904 ft | 441 kts | 54° |
| 2026-04-22 13:04 | -1.74047 | -11.02437 | 35908 ft | 441 kts | 54° |
| 2026-04-22 13:04 | -1.70450 | -10.97469 | 35910 ft | 441 kts | 55° |
| 2026-04-22 13:05 | -1.66861 | -10.92497 | 35905 ft | 441 kts | 55° |
| 2026-04-22 13:05 | -1.63275 | -10.87531 | 35906 ft | 440 kts | 55° |
| 2026-04-22 13:06 | -1.59687 | -10.82564 | 35905 ft | 440 kts | 55° |
| 2026-04-22 13:06 | -1.56106 | -10.77610 | 35901 ft | 440 kts | 55° |
| 2026-04-22 13:07 | -1.52523 | -10.72652 | 35904 ft | 440 kts | 55° |
| 2026-04-22 13:07 | -1.48934 | -10.67692 | 35903 ft | 439 kts | 55° |
| 2026-04-22 13:08 | -1.45381 | -10.62769 | 35903 ft | 439 kts | 55° |
| 2026-04-22 13:08 | -1.41807 | -10.57829 | 35899 ft | 439 kts | 55° |
| 2026-04-22 13:09 | -1.38239 | -10.52884 | 35899 ft | 438 kts | 55° |
| 2026-04-22 13:09 | -1.34666 | -10.47945 | 35901 ft | 438 kts | 55° |
| 2026-04-22 13:10 | -1.31096 | -10.43005 | 35907 ft | 438 kts | 55° |
| 2026-04-22 13:10 | -1.27531 | -10.38070 | 35896 ft | 438 kts | 55° |
| 2026-04-22 13:11 | -1.23969 | -10.33144 | 35900 ft | 437 kts | 55° |
| 2026-04-22 13:11 | -1.20410 | -10.28217 | 35897 ft | 437 kts | 55° |
| 2026-04-22 13:12 | -1.16842 | -10.23284 | 35897 ft | 438 kts | 55° |
| 2026-04-22 13:12 | -1.13278 | -10.18348 | 35899 ft | 438 kts | 55° |
| 2026-04-22 13:13 | -1.09734 | -10.13456 | 35896 ft | 438 kts | 55° |
| 2026-04-22 13:13 | -1.06169 | -10.08522 | 35899 ft | 438 kts | 55° |
| 2026-04-22 13:14 | -1.02594 | -10.03590 | 35897 ft | 437 kts | 55° |
| 2026-04-22 13:14 | -0.99654 | -9.99434 | 35893 ft | 437 kts | 58° |
| 2026-04-22 13:15 | -0.96435 | -9.94327 | 35894 ft | 437 kts | 59° |
| 2026-04-22 13:15 | -0.93198 | -9.89172 | 35895 ft | 437 kts | 58° |
| 2026-04-22 13:16 | -0.89958 | -9.84034 | 35895 ft | 437 kts | 58° |
| 2026-04-22 13:16 | -0.86712 | -9.78881 | 35890 ft | 437 kts | 58° |
| 2026-04-22 13:17 | -0.83479 | -9.73738 | 35891 ft | 437 kts | 59° |
| 2026-04-22 13:17 | -0.80246 | -9.68596 | 35892 ft | 437 kts | 59° |
| 2026-04-22 13:18 | -0.77012 | -9.63449 | 35892 ft | 437 kts | 59° |
| 2026-04-22 13:18 | -0.73792 | -9.58339 | 35893 ft | 437 kts | 58° |
| 2026-04-22 13:19 | -0.70530 | -9.53156 | 35890 ft | 437 kts | 59° |
| 2026-04-22 13:19 | -0.67318 | -9.48045 | 35889 ft | 438 kts | 58° |
| 2026-04-22 13:20 | -0.64076 | -9.42895 | 35891 ft | 438 kts | 58° |
| 2026-04-22 13:20 | -0.60832 | -9.37742 | 35885 ft | 438 kts | 58° |
| 2026-04-22 13:21 | -0.57592 | -9.32588 | 35885 ft | 438 kts | 58° |
| 2026-04-22 13:21 | -0.54344 | -9.27435 | 35886 ft | 438 kts | 58° |
| 2026-04-22 13:22 | -0.51102 | -9.22289 | 35883 ft | 438 kts | 58° |
| 2026-04-22 13:22 | -0.47855 | -9.17127 | 35885 ft | 438 kts | 58° |
| 2026-04-22 13:23 | -0.44614 | -9.11969 | 35884 ft | 438 kts | 58° |
| 2026-04-22 13:23 | -0.41382 | -9.06834 | 35882 ft | 439 kts | 58° |
| 2026-04-22 13:24 | -0.38127 | -9.01674 | 35882 ft | 439 kts | 58° |
| 2026-04-22 13:24 | -0.34875 | -8.96507 | 35879 ft | 439 kts | 58° |
| 2026-04-22 13:25 | -0.31624 | -8.91337 | 35881 ft | 439 kts | 58° |
| 2026-04-22 13:25 | -0.28367 | -8.86165 | 35882 ft | 439 kts | 58° |
| 2026-04-22 13:26 | -0.25115 | -8.80995 | 35883 ft | 439 kts | 58° |
| 2026-04-22 13:26 | -0.21857 | -8.75817 | 35880 ft | 439 kts | 58° |
| 2026-04-22 13:27 | -0.18611 | -8.70653 | 35879 ft | 439 kts | 58° |
| 2026-04-22 13:27 | -0.15363 | -8.65492 | 35879 ft | 439 kts | 58° |
| 2026-04-22 13:28 | -0.12117 | -8.60336 | 35878 ft | 438 kts | 58° |
| 2026-04-22 13:28 | -0.08890 | -8.55217 | 35883 ft | 438 kts | 58° |
| 2026-04-22 13:29 | -0.05646 | -8.50072 | 35878 ft | 437 kts | 58° |
| 2026-04-22 13:29 | -0.02406 | -8.44926 | 35872 ft | 437 kts | 58° |
| 2026-04-22 13:30 | 0.00824 | -8.39789 | 35876 ft | 436 kts | 58° |
| 2026-04-22 13:30 | 0.04057 | -8.34665 | 35875 ft | 436 kts | 58° |
| 2026-04-22 13:31 | 0.07287 | -8.29535 | 35875 ft | 436 kts | 58° |
| 2026-04-22 13:31 | 0.10518 | -8.24403 | 35869 ft | 436 kts | 58° |
| 2026-04-22 13:32 | 0.13741 | -8.19287 | 35869 ft | 435 kts | 58° |
| 2026-04-22 13:32 | 0.16970 | -8.14160 | 35869 ft | 435 kts | 58° |
| 2026-04-22 13:33 | 0.20168 | -8.09075 | 35870 ft | 435 kts | 58° |
| 2026-04-22 13:33 | 0.23393 | -8.03953 | 35881 ft | 436 kts | 58° |
| 2026-04-22 13:34 | 0.26625 | -7.98815 | 36121 ft | 436 kts | 58° |
| 2026-04-22 13:34 | 0.28242 | -7.96249 | 36255 ft | 436 kts | 58° |
| 2026-04-22 13:34 | 0.29861 | -7.93677 | 36391 ft | 436 kts | 58° |
| 2026-04-22 13:34 | 0.31469 | -7.91118 | 36512 ft | 436 kts | 58° |
| 2026-04-22 13:35 | 0.33087 | -7.88546 | 36629 ft | 436 kts | 58° |
| 2026-04-22 13:35 | 0.34699 | -7.85985 | 36747 ft | 436 kts | 58° |
| 2026-04-22 13:35 | 0.36316 | -7.83420 | 36869 ft | 436 kts | 58° |
| 2026-04-22 13:35 | 0.37933 | -7.80849 | 36974 ft | 436 kts | 59° |
| 2026-04-22 13:36 | 0.39541 | -7.78276 | 37078 ft | 437 kts | 59° |
| 2026-04-22 13:36 | 0.41157 | -7.75701 | 37191 ft | 437 kts | 59° |
| 2026-04-22 13:36 | 0.42770 | -7.73132 | 37295 ft | 437 kts | 59° |
| 2026-04-22 13:36 | 0.44383 | -7.70566 | 37398 ft | 437 kts | 59° |
| 2026-04-22 13:37 | 0.45984 | -7.68022 | 37495 ft | 437 kts | 59° |
| 2026-04-22 13:37 | 0.49215 | -7.62885 | 37685 ft | 437 kts | 59° |
| 2026-04-22 13:38 | 0.52471 | -7.57747 | 37870 ft | 437 kts | 59° |
| 2026-04-22 13:38 | 0.57320 | -7.50052 | 37870 ft | 436 kts | 59° |
| 2026-04-22 13:39 | 0.60545 | -7.44925 | 37862 ft | 435 kts | 59° |
| 2026-04-22 13:39 | 0.63767 | -7.39804 | 37862 ft | 435 kts | 59° |
| 2026-04-22 13:40 | 0.66973 | -7.34715 | 37862 ft | 435 kts | 59° |
| 2026-04-22 13:40 | 0.70443 | -7.29758 | 37861 ft | 435 kts | 55° |
| 2026-04-22 13:41 | 0.74014 | -7.24868 | 37860 ft | 435 kts | 55° |
| 2026-04-22 13:41 | 0.77584 | -7.19977 | 37859 ft | 435 kts | 55° |
| 2026-04-22 13:42 | 0.81149 | -7.15088 | 37859 ft | 435 kts | 55° |
| 2026-04-22 13:42 | 0.84713 | -7.10208 | 37857 ft | 434 kts | 55° |
| 2026-04-22 13:43 | 0.88252 | -7.05355 | 37860 ft | 434 kts | 55° |
| 2026-04-22 13:43 | 0.91807 | -7.00483 | 37853 ft | 434 kts | 55° |
| 2026-04-22 13:44 | 0.95368 | -6.95605 | 37858 ft | 434 kts | 55° |
| 2026-04-22 13:44 | 0.98915 | -6.90742 | 37862 ft | 434 kts | 56° |
| 2026-04-22 13:45 | 1.02475 | -6.85862 | 37863 ft | 433 kts | 56° |
| 2026-04-22 13:45 | 1.06024 | -6.80992 | 37859 ft | 433 kts | 56° |
| 2026-04-22 13:46 | 1.09571 | -6.76132 | 37859 ft | 433 kts | 56° |
| 2026-04-22 13:46 | 1.13115 | -6.71264 | 37857 ft | 433 kts | 56° |
| 2026-04-22 13:47 | 1.16661 | -6.66404 | 37862 ft | 433 kts | 56° |
| 2026-04-22 13:47 | 1.20206 | -6.61546 | 37858 ft | 433 kts | 56° |
| 2026-04-22 13:48 | 1.23750 | -6.56687 | 37861 ft | 433 kts | 56° |
| 2026-04-22 13:48 | 1.27293 | -6.51828 | 37858 ft | 433 kts | 56° |
| 2026-04-22 13:49 | 1.30818 | -6.46991 | 37861 ft | 433 kts | 56° |
| 2026-04-22 13:49 | 1.34365 | -6.42128 | 37863 ft | 433 kts | 56° |
| 2026-04-22 13:50 | 1.37919 | -6.37247 | 37863 ft | 434 kts | 56° |
| 2026-04-22 13:50 | 1.41472 | -6.32372 | 37859 ft | 434 kts | 56° |
| 2026-04-22 13:51 | 1.45027 | -6.27497 | 37861 ft | 434 kts | 56° |
| 2026-04-22 13:51 | 1.48581 | -6.22621 | 37861 ft | 434 kts | 56° |
| 2026-04-22 13:52 | 1.52136 | -6.17747 | 37858 ft | 434 kts | 56° |
| 2026-04-22 13:52 | 1.55675 | -6.12889 | 37860 ft | 434 kts | 56° |
| 2026-04-22 13:53 | 1.59230 | -6.08008 | 37860 ft | 434 kts | 56° |
| 2026-04-22 13:53 | 1.62794 | -6.03121 | 37857 ft | 435 kts | 56° |
| 2026-04-22 13:54 | 1.66348 | -5.98239 | 37854 ft | 435 kts | 56° |
| 2026-04-22 13:54 | 1.69919 | -5.93340 | 37856 ft | 435 kts | 56° |
| 2026-04-22 13:55 | 1.73477 | -5.88459 | 37856 ft | 435 kts | 56° |
| 2026-04-22 13:55 | 1.77039 | -5.83564 | 37861 ft | 435 kts | 56° |
| 2026-04-22 13:56 | 1.80604 | -5.78670 | 37857 ft | 435 kts | 56° |
| 2026-04-22 13:56 | 1.84168 | -5.73784 | 37855 ft | 435 kts | 56° |
| 2026-04-22 13:57 | 1.87704 | -5.68929 | 37856 ft | 435 kts | 57° |
| 2026-04-22 13:57 | 1.91262 | -5.64041 | 37858 ft | 434 kts | 57° |
| 2026-04-22 13:58 | 1.94818 | -5.59160 | 37857 ft | 434 kts | 57° |
| 2026-04-22 13:58 | 1.98368 | -5.54280 | 37855 ft | 434 kts | 57° |
| 2026-04-22 13:59 | 2.01927 | -5.49396 | 37854 ft | 434 kts | 57° |
| 2026-04-22 13:59 | 2.05476 | -5.44524 | 37854 ft | 434 kts | 57° |
| 2026-04-22 14:00 | 2.08434 | -5.40459 | 37856 ft | 434 kts | 56° |
| 2026-04-22 14:00 | 2.11986 | -5.35578 | 37856 ft | 434 kts | 56° |
| 2026-04-22 14:01 | 2.15540 | -5.30692 | 37858 ft | 435 kts | 56° |
| 2026-04-22 14:01 | 2.19109 | -5.25790 | 37857 ft | 435 kts | 56° |
| 2026-04-22 14:02 | 2.22675 | -5.20888 | 37855 ft | 436 kts | 56° |
| 2026-04-22 14:02 | 2.26218 | -5.16020 | 37857 ft | 436 kts | 56° |
| 2026-04-22 14:03 | 2.29783 | -5.11118 | 37857 ft | 436 kts | 56° |
| 2026-04-22 14:03 | 2.33359 | -5.06204 | 37854 ft | 436 kts | 56° |
| 2026-04-22 14:04 | 2.36929 | -5.01296 | 37858 ft | 437 kts | 56° |
| 2026-04-22 14:04 | 2.40506 | -4.96384 | 37855 ft | 437 kts | 56° |
| 2026-04-22 14:05 | 2.44085 | -4.91460 | 37856 ft | 437 kts | 56° |
| 2026-04-22 14:06 | 2.49450 | -4.84084 | 37852 ft | 437 kts | 56° |
| 2026-04-22 14:06 | 2.53034 | -4.79154 | 37854 ft | 438 kts | 56° |
| 2026-04-22 14:07 | 2.56615 | -4.74232 | 37852 ft | 438 kts | 56° |
| 2026-04-22 14:07 | 2.60179 | -4.69327 | 37850 ft | 438 kts | 56° |
| 2026-04-22 14:08 | 2.63766 | -4.64393 | 37850 ft | 439 kts | 56° |
| 2026-04-22 14:08 | 2.67360 | -4.59447 | 37848 ft | 439 kts | 56° |
| 2026-04-22 14:09 | 2.70954 | -4.54505 | 37853 ft | 440 kts | 56° |
| 2026-04-22 14:09 | 2.74555 | -4.49545 | 37851 ft | 441 kts | 56° |
| 2026-04-22 14:10 | 2.78168 | -4.44570 | 37848 ft | 442 kts | 56° |
| 2026-04-22 14:10 | 2.81783 | -4.39600 | 37845 ft | 442 kts | 56° |
| 2026-04-22 14:11 | 2.85401 | -4.34613 | 37847 ft | 443 kts | 56° |
| 2026-04-22 14:11 | 2.89024 | -4.29623 | 37845 ft | 444 kts | 56° |
| 2026-04-22 14:12 | 2.92655 | -4.24622 | 37848 ft | 444 kts | 57° |
| 2026-04-22 14:12 | 2.96269 | -4.19648 | 37845 ft | 445 kts | 57° |
| 2026-04-22 14:13 | 2.99905 | -4.14638 | 37847 ft | 444 kts | 56° |
| 2026-04-22 14:13 | 3.03556 | -4.09605 | 37852 ft | 444 kts | 56° |
| 2026-04-22 14:14 | 3.07164 | -4.04627 | 37848 ft | 444 kts | 57° |
| 2026-04-22 14:14 | 3.10789 | -3.99622 | 37844 ft | 444 kts | 56° |
| 2026-04-22 14:15 | 3.14426 | -3.94622 | 37846 ft | 445 kts | 56° |
| 2026-04-22 14:15 | 3.18063 | -3.89616 | 37840 ft | 445 kts | 56° |
| 2026-04-22 14:16 | 3.21701 | -3.84596 | 37843 ft | 445 kts | 56° |
| 2026-04-22 14:16 | 3.25340 | -3.79584 | 37844 ft | 445 kts | 56° |
| 2026-04-22 14:17 | 3.28984 | -3.74562 | 37842 ft | 446 kts | 56° |
| 2026-04-22 14:17 | 3.32633 | -3.69525 | 37840 ft | 447 kts | 56° |
| 2026-04-22 14:18 | 3.36262 | -3.64519 | 37839 ft | 447 kts | 56° |
| 2026-04-22 14:18 | 3.39919 | -3.59481 | 37838 ft | 448 kts | 56° |
| 2026-04-22 14:19 | 3.43585 | -3.54423 | 37840 ft | 449 kts | 56° |
| 2026-04-22 14:19 | 3.47255 | -3.49359 | 37841 ft | 449 kts | 57° |
| 2026-04-22 14:20 | 3.52758 | -3.41762 | 37839 ft | 450 kts | 57° |
| 2026-04-22 14:20 | 3.56432 | -3.36685 | 37840 ft | 450 kts | 57° |
| 2026-04-22 14:21 | 3.61939 | -3.29078 | 37838 ft | 449 kts | 57° |
| 2026-04-22 14:22 | 3.67413 | -3.21525 | 37841 ft | 448 kts | 57° |
| 2026-04-22 14:23 | 3.72898 | -3.13950 | 37833 ft | 448 kts | 57° |
| 2026-04-22 14:23 | 3.76550 | -3.08898 | 37828 ft | 447 kts | 57° |
| 2026-04-22 14:24 | 3.80201 | -3.03857 | 37832 ft | 447 kts | 57° |
| 2026-04-22 14:24 | 3.83847 | -2.98817 | 37834 ft | 446 kts | 57° |
| 2026-04-22 14:25 | 3.87495 | -2.93774 | 37833 ft | 446 kts | 57° |
| 2026-04-22 14:25 | 3.91111 | -2.88775 | 37831 ft | 446 kts | 57° |
| 2026-04-22 14:26 | 3.94757 | -2.83697 | 37828 ft | 446 kts | 57° |
| 2026-04-22 14:26 | 3.98382 | -2.78662 | 37830 ft | 446 kts | 56° |
| 2026-04-22 14:27 | 4.02011 | -2.73677 | 37831 ft | 446 kts | 56° |
| 2026-04-22 14:27 | 4.05656 | -2.68654 | 37830 ft | 445 kts | 56° |
| 2026-04-22 14:28 | 4.09294 | -2.63628 | 37832 ft | 445 kts | 56° |
| 2026-04-22 14:28 | 4.12921 | -2.58603 | 37829 ft | 445 kts | 56° |
| 2026-04-22 14:29 | 4.16554 | -2.53579 | 37828 ft | 445 kts | 56° |
| 2026-04-22 14:29 | 4.20184 | -2.48543 | 37827 ft | 445 kts | 56° |
| 2026-04-22 14:30 | 4.23812 | -2.43520 | 37827 ft | 445 kts | 56° |
| 2026-04-22 14:30 | 4.27424 | -2.38523 | 37825 ft | 446 kts | 56° |
| 2026-04-22 14:31 | 4.31060 | -2.33487 | 37820 ft | 446 kts | 56° |
| 2026-04-22 14:31 | 4.34691 | -2.28454 | 37823 ft | 446 kts | 56° |
| 2026-04-22 14:32 | 4.38325 | -2.23417 | 37823 ft | 446 kts | 56° |
| 2026-04-22 14:32 | 4.41966 | -2.18377 | 37824 ft | 447 kts | 56° |
| 2026-04-22 14:33 | 4.45609 | -2.13328 | 37828 ft | 447 kts | 56° |
| 2026-04-22 14:33 | 4.49251 | -2.08272 | 37819 ft | 447 kts | 56° |
| 2026-04-22 14:34 | 4.52895 | -2.03214 | 37821 ft | 447 kts | 56° |
| 2026-04-22 14:34 | 4.56497 | -1.98217 | 37821 ft | 448 kts | 56° |
| 2026-04-22 14:35 | 4.60188 | -1.93101 | 37820 ft | 448 kts | 56° |
| 2026-04-22 14:35 | 4.63810 | -1.88072 | 37817 ft | 448 kts | 56° |
| 2026-04-22 14:36 | 4.67480 | -1.82977 | 37818 ft | 448 kts | 56° |
| 2026-04-22 14:36 | 4.71114 | -1.77936 | 37818 ft | 448 kts | 57° |
| 2026-04-22 14:37 | 4.74787 | -1.72834 | 37818 ft | 449 kts | 56° |
| 2026-04-22 14:37 | 4.78419 | -1.67793 | 37820 ft | 449 kts | 56° |
| 2026-04-22 14:38 | 4.82069 | -1.62721 | 37815 ft | 448 kts | 56° |
| 2026-04-22 14:38 | 4.83881 | -1.60202 | 37304 ft | 446 kts | 56° |
| 2026-04-22 14:38 | 4.85704 | -1.57670 | 36456 ft | 448 kts | 56° |
| 2026-04-22 14:38 | 4.87533 | -1.55129 | 35550 ft | 452 kts | 56° |
| 2026-04-22 14:39 | 4.89383 | -1.52557 | 34678 ft | 456 kts | 56° |
| 2026-04-22 14:39 | 4.91248 | -1.49966 | 33799 ft | 460 kts | 56° |
| 2026-04-22 14:39 | 4.93126 | -1.47356 | 32861 ft | 463 kts | 55° |
| 2026-04-22 14:40 | 4.96257 | -1.43000 | 31477 ft | 462 kts | 54° |
| 2026-04-22 14:40 | 4.98767 | -1.39506 | 30380 ft | 461 kts | 53° |
| 2026-04-22 14:40 | 5.00642 | -1.36903 | 29466 ft | 462 kts | 53° |
| 2026-04-22 14:40 | 5.02519 | -1.34296 | 28624 ft | 459 kts | 53° |
| 2026-04-22 14:41 | 5.04374 | -1.31715 | 28121 ft | 454 kts | 53° |
| 2026-04-22 14:41 | 5.06218 | -1.29146 | 27905 ft | 452 kts | 53° |
| 2026-04-22 14:41 | 5.08051 | -1.26596 | 27818 ft | 451 kts | 53° |
| 2026-04-22 14:41 | 5.09890 | -1.24041 | 27802 ft | 451 kts | 53° |
| 2026-04-22 14:42 | 5.11721 | -1.21495 | 27800 ft | 451 kts | 53° |
| 2026-04-22 14:42 | 5.13558 | -1.18939 | 27807 ft | 451 kts | 53° |
| 2026-04-22 14:42 | 5.15392 | -1.16381 | 27812 ft | 451 kts | 53° |
| 2026-04-22 14:42 | 5.17226 | -1.13829 | 27808 ft | 451 kts | 53° |
| 2026-04-22 14:43 | 5.19061 | -1.11276 | 27808 ft | 451 kts | 53° |
| 2026-04-22 14:43 | 5.20893 | -1.08726 | 27804 ft | 451 kts | 53° |
| 2026-04-22 14:43 | 5.22681 | -1.06159 | 27633 ft | 446 kts | 55° |
| 2026-04-22 14:43 | 5.24374 | -1.03572 | 26942 ft | 442 kts | 56° |
| 2026-04-22 14:44 | 5.26048 | -1.00994 | 26194 ft | 440 kts | 56° |
| 2026-04-22 14:44 | 5.27714 | -0.98433 | 25484 ft | 437 kts | 56° |
| 2026-04-22 14:44 | 5.29370 | -0.95890 | 24793 ft | 433 kts | 57° |
| 2026-04-22 14:44 | 5.31014 | -0.93363 | 24156 ft | 430 kts | 57° |
| 2026-04-22 14:45 | 5.32638 | -0.90870 | 23544 ft | 426 kts | 57° |
| 2026-04-22 14:45 | 5.34234 | -0.88423 | 22817 ft | 423 kts | 57° |
| 2026-04-22 14:45 | 5.35857 | -0.85934 | 22084 ft | 419 kts | 57° |
| 2026-04-22 14:45 | 5.37422 | -0.83530 | 21448 ft | 414 kts | 57° |
| 2026-04-22 14:46 | 5.38985 | -0.81131 | 20825 ft | 409 kts | 57° |
| 2026-04-22 14:46 | 5.40533 | -0.78752 | 20222 ft | 404 kts | 57° |
| 2026-04-22 14:46 | 5.42062 | -0.76400 | 19634 ft | 400 kts | 57° |
| 2026-04-22 14:46 | 5.43574 | -0.74077 | 19044 ft | 395 kts | 58° |
| 2026-04-22 14:47 | 5.45070 | -0.71774 | 18479 ft | 391 kts | 58° |
| 2026-04-22 14:47 | 5.46051 | -0.70268 | 18110 ft | 388 kts | 58° |
| 2026-04-22 14:47 | 5.47521 | -0.68009 | 17478 ft | 384 kts | 58° |
| 2026-04-22 14:47 | 5.48970 | -0.65781 | 16879 ft | 379 kts | 58° |
| 2026-04-22 14:48 | 5.50400 | -0.63582 | 16315 ft | 374 kts | 58° |
| 2026-04-22 14:48 | 5.51812 | -0.61407 | 15748 ft | 369 kts | 58° |
| 2026-04-22 14:48 | 5.53208 | -0.59261 | 15186 ft | 365 kts | 58° |
| 2026-04-22 14:48 | 5.54590 | -0.57135 | 14655 ft | 361 kts | 58° |
| 2026-04-22 14:49 | 5.55949 | -0.55046 | 14136 ft | 356 kts | 58° |
| 2026-04-22 14:49 | 5.57298 | -0.52974 | 13627 ft | 352 kts | 59° |
| 2026-04-22 14:49 | 5.58630 | -0.50927 | 13051 ft | 348 kts | 58° |
| 2026-04-22 14:49 | 5.59947 | -0.48903 | 12478 ft | 344 kts | 58° |
| 2026-04-22 14:50 | 5.61081 | -0.46814 | 11893 ft | 339 kts | 70° |
| 2026-04-22 14:50 | 5.61570 | -0.44523 | 11331 ft | 335 kts | 83° |
| 2026-04-22 14:50 | 5.61801 | -0.42213 | 10852 ft | 329 kts | 84° |
| 2026-04-22 14:50 | 5.62007 | -0.39964 | 10606 ft | 317 kts | 84° |
| 2026-04-22 14:51 | 5.62216 | -0.37812 | 10426 ft | 303 kts | 83° |
| 2026-04-22 14:51 | 5.62424 | -0.35776 | 10260 ft | 290 kts | 83° |
| 2026-04-22 14:51 | 5.62629 | -0.33812 | 10082 ft | 278 kts | 83° |
| 2026-04-22 14:51 | 5.62827 | -0.31904 | 9748 ft | 273 kts | 83° |
| 2026-04-22 14:52 | 5.63022 | -0.30011 | 9313 ft | 271 kts | 83° |
| 2026-04-22 14:52 | 5.63220 | -0.28127 | 8845 ft | 271 kts | 83° |
| 2026-04-22 14:52 | 5.63491 | -0.26260 | 8244 ft | 270 kts | 73° |
| 2026-04-22 14:52 | 5.64314 | -0.24588 | 7568 ft | 269 kts | 50° |
| 2026-04-22 14:53 | 5.65782 | -0.23430 | 6889 ft | 272 kts | 26° |
| 2026-04-22 14:53 | 5.67559 | -0.22731 | 6230 ft | 275 kts | 21° |
| 2026-04-22 14:53 | 5.69361 | -0.22064 | 5623 ft | 278 kts | 21° |
| 2026-04-22 14:53 | 5.71158 | -0.21412 | 5348 ft | 271 kts | 20° |
| 2026-04-22 14:54 | 5.72914 | -0.20788 | 5097 ft | 264 kts | 19° |
| 2026-04-22 14:54 | 5.74630 | -0.20192 | 4829 ft | 258 kts | 19° |
| 2026-04-22 14:54 | 5.76316 | -0.19618 | 4543 ft | 254 kts | 18° |
| 2026-04-22 14:54 | 5.77962 | -0.19035 | 4296 ft | 247 kts | 20° |
| 2026-04-22 14:55 | 5.79547 | -0.18439 | 4046 ft | 240 kts | 20° |
| 2026-04-22 14:55 | 5.81072 | -0.17861 | 3751 ft | 234 kts | 20° |
| 2026-04-22 14:55 | 5.82562 | -0.17293 | 3557 ft | 224 kts | 20° |
| 2026-04-22 14:55 | 5.83977 | -0.16731 | 3386 ft | 213 kts | 28° |
| 2026-04-22 14:56 | 5.85031 | -0.15761 | 3089 ft | 206 kts | 61° |
| 2026-04-22 14:56 | 5.85382 | -0.14401 | 2713 ft | 202 kts | 95° |
| 2026-04-22 14:56 | 5.85052 | -0.13066 | 2454 ft | 192 kts | 109° |
| 2026-04-22 14:56 | 5.84600 | -0.11818 | 2179 ft | 189 kts | 110° |
| 2026-04-22 14:57 | 5.84110 | -0.10581 | 1991 ft | 192 kts | 120° |
| 2026-04-22 14:57 | 5.83136 | -0.09704 | 1956 ft | 191 kts | 157° |
| 2026-04-22 14:57 | 5.81867 | -0.09344 | 1987 ft | 190 kts | 167° |
| 2026-04-22 14:57 | 5.80577 | -0.09049 | 1998 ft | 190 kts | 170° |
| 2026-04-22 14:58 | 5.79287 | -0.09115 | 1990 ft | 189 kts | 193° |
| 2026-04-22 14:58 | 5.78037 | -0.09519 | 1997 ft | 189 kts | 201° |
| 2026-04-22 14:58 | 5.76814 | -0.10004 | 1996 ft | 189 kts | 202° |
| 2026-04-22 14:58 | 5.75699 | -0.10459 | 2004 ft | 175 kts | 202° |
| 2026-04-22 14:59 | 5.74754 | -0.10848 | 1994 ft | 168 kts | 202° |
| 2026-04-22 14:59 | 5.73677 | -0.11293 | 1993 ft | 168 kts | 202° |
| 2026-04-22 14:59 | 5.72600 | -0.11738 | 1988 ft | 167 kts | 202° |
| 2026-04-22 14:59 | 5.71525 | -0.12182 | 1998 ft | 166 kts | 202° |
| 2026-04-22 15:00 | 5.70453 | -0.12624 | 1982 ft | 166 kts | 203° |
| 2026-04-22 15:00 | 5.69425 | -0.13050 | 1836 ft | 154 kts | 202° |
| 2026-04-22 15:00 | 5.68435 | -0.13459 | 1655 ft | 152 kts | 202° |
| 2026-04-22 15:00 | 5.67502 | -0.13844 | 1454 ft | 141 kts | 203° |
| 2026-04-22 15:01 | 5.66597 | -0.14218 | 1292 ft | 140 kts | 202° |
| 2026-04-22 15:01 | 5.65693 | -0.14592 | 1108 ft | 139 kts | 202° |
| 2026-04-22 15:01 | 5.64837 | -0.14947 | 911 ft | 129 kts | 200° |
| 2026-04-22 15:01 | 5.64012 | -0.15288 | 737 ft | 128 kts | 201° |
| 2026-04-22 15:02 | 5.63190 | -0.15628 | 587 ft | 127 kts | 203° |
| 2026-04-22 15:02 | 5.62381 | -0.15961 | 408 ft | 123 kts | 202° |
| 2026-04-22 15:02 | 5.61611 | -0.16274 | 236 ft | 114 kts | 200° |
| 2026-04-22 15:02 | 5.61007 | -0.16519 | 226 ft | 58 kts | 202° |
| 2026-04-22 15:03 | 5.60687 | -0.16654 | 228 ft | 20 kts | 202° |
| 2026-04-22 15:03 | 5.60587 | -0.16696 | 226 ft | 16 kts | 207° |
| 2026-04-22 15:03 | 5.60531 | -0.16775 | 225 ft | 12 kts | 245° |
| 2026-04-22 15:03 | 5.60498 | -0.16852 | 224 ft | 11 kts | 248° |
| 2026-04-22 15:04 | 5.60463 | -0.16926 | 221 ft | 13 kts | 242° |
| 2026-04-22 15:04 | 5.60392 | -0.16984 | 222 ft | 14 kts | 204° |
| 2026-04-22 15:04 | 5.60333 | -0.17008 | 222 ft | 8 kts | 202° |
| 2026-04-22 15:04 | 5.60274 | -0.17032 | 218 ft | 10 kts | 202° |
| 2026-04-22 15:05 | 5.60220 | -0.17055 | 218 ft | 6 kts | 203° |
| 2026-04-22 15:05 | 5.60194 | -0.17074 | 217 ft | 5 kts | 238° |
| 2026-04-22 15:05 | 5.60201 | -0.17112 | 220 ft | 5 kts | 293° |
| 2026-04-22 15:05 | 5.60213 | -0.17144 | 217 ft | 3 kts | 292° |
| 2026-04-22 15:06 | 5.60220 | -0.17160 | 219 ft | 0 kts | 293° |